PWSweather.com
Personal Weather Stations
Station Observations
KVARICHM91
Near West End, Richmond, VA 23221

Near West EndRichmond, VA 23221

Lat: 37.567, Lon: -77.496

Elevation: 0

Station Type: Davis Vantage Pro2

Latest ConditionsUpdated 8:34:08 AM EST Friday, Jan 19, 2018
Currently Today's Max Today's Min Today's Average
Temperature 33.1°F0.6°C 33.3°F0.7°C 28.0°F-2.2°C 31.8°F-0.1°C
Dew Point 12.6°F-10.8°C 16.3°F-8.7°C 12.0°F-11.1°C 14.3°F-9.8°C
Winds 1.1 mph WSW1.8 kmh WSW 3.4 mph W5.5 kmh W - 1.4 mph 2.3 kmh
Wind Gusts 3.1 mph5.0 kmh 6.3 mph10.1 kmh - -
Humidity 42% 61% 42% 48%
Pressure 30.18 in1022.0 mb 30.19 in1022.4 mb 30.12 in1020.0 mb -
Hour Temp Dew Point Humidity Winds Wind Gusts Pressure Precip Precip Rate Daily Precip Total
08:34 AM 33.1°F0.6°C 12.6°F-10.8°C 42% 1.1 mph WSW1.8 kmh WSW 3.1 mph5.0 kmh 30.18 in1022.0 mb 0.00 in0.0 mm 0.00 in0.0 mm 0.00 in0.0 mm
08:33 AM 33.1°F0.6°C 12.6°F-10.8°C 42% 1.3 mph WSW2.1 kmh WSW 2.0 mph3.2 kmh 30.18 in1022.0 mb 0.00 in0.0 mm 0.00 in0.0 mm 0.00 in0.0 mm
08:32 AM 32.9°F0.5°C 12.4°F-10.9°C 42% 1.8 mph WSW2.9 kmh WSW 2.0 mph3.2 kmh 30.18 in1022.0 mb 0.00 in0.0 mm 0.00 in0.0 mm 0.00 in0.0 mm
08:31 AM 32.7°F0.4°C 12.2°F-11.0°C 42% 3.1 mph WSW5.0 kmh WSW 4.3 mph6.9 kmh 30.18 in1022.0 mb 0.00 in0.0 mm 0.00 in0.0 mm 0.00 in0.0 mm
08:30 AM 32.5°F0.3°C 12.0°F-11.1°C 42% 3.4 mph WSW5.5 kmh WSW 6.3 mph10.1 kmh 30.18 in1022.0 mb 0.00 in0.0 mm 0.00 in0.0 mm 0.00 in0.0 mm
08:29 AM 32.4°F0.2°C 12.4°F-10.9°C 43% 1.8 mph W2.9 kmh W 6.3 mph10.1 kmh 30.18 in1022.0 mb 0.00 in0.0 mm 0.00 in0.0 mm 0.00 in0.0 mm
08:28 AM 32.4°F0.2°C 12.9°F-10.6°C 44% 1.3 mph WNW2.1 kmh WNW 2.0 mph3.2 kmh 30.18 in1022.0 mb 0.00 in0.0 mm 0.00 in0.0 mm 0.00 in0.0 mm
08:27 AM 32.2°F0.1°C 12.7°F-10.7°C 44% 1.3 mph WNW2.1 kmh WNW 2.0 mph3.2 kmh 30.18 in1022.0 mb 0.00 in0.0 mm 0.00 in0.0 mm 0.00 in0.0 mm
08:26 AM 32.2°F0.1°C 13.3°F-10.4°C 45% 1.3 mph WNW2.1 kmh WNW 3.1 mph5.0 kmh 30.18 in1022.0 mb 0.00 in0.0 mm 0.00 in0.0 mm 0.00 in0.0 mm
08:25 AM 32.0°F0.0°C 13.1°F-10.5°C 45% 1.1 mph WNW1.8 kmh WNW 2.0 mph3.2 kmh 30.18 in1022.0 mb 0.00 in0.0 mm 0.00 in0.0 mm 0.00 in0.0 mm
08:24 AM 31.8°F-0.1°C 12.9°F-10.6°C 45% 1.1 mph NW1.8 kmh NW 3.1 mph5.0 kmh 30.18 in1022.0 mb 0.00 in0.0 mm 0.00 in0.0 mm 0.00 in0.0 mm
08:23 AM 31.8°F-0.1°C 12.9°F-10.6°C 45% 0.9 mph NW1.4 kmh NW 3.1 mph5.0 kmh 30.18 in1022.0 mb 0.00 in0.0 mm 0.00 in0.0 mm 0.00 in0.0 mm
08:22 AM 31.8°F-0.1°C 12.9°F-10.6°C 45% 1.3 mph W2.1 kmh W 3.1 mph5.0 kmh 30.17 in1021.7 mb 0.00 in0.0 mm 0.00 in0.0 mm 0.00 in0.0 mm
08:21 AM 31.6°F-0.2°C 12.7°F-10.7°C 45% 1.8 mph WNW2.9 kmh WNW 3.1 mph5.0 kmh 30.18 in1022.0 mb 0.00 in0.0 mm 0.00 in0.0 mm 0.00 in0.0 mm
08:20 AM 31.5°F-0.3°C 12.6°F-10.8°C 45% 1.3 mph W2.1 kmh W 3.1 mph5.0 kmh 30.18 in1022.0 mb 0.00 in0.0 mm 0.00 in0.0 mm 0.00 in0.0 mm
08:19 AM 31.5°F-0.3°C 13.1°F-10.5°C 46% 1.1 mph W1.8 kmh W 1.1 mph1.8 kmh 30.17 in1021.7 mb 0.00 in0.0 mm 0.00 in0.0 mm 0.00 in0.0 mm
08:18 AM 31.5°F-0.3°C 13.1°F-10.5°C 46% 1.3 mph W2.1 kmh W 3.1 mph5.0 kmh 30.17 in1021.7 mb 0.00 in0.0 mm 0.00 in0.0 mm 0.00 in0.0 mm
08:17 AM 31.3°F-0.4°C 12.9°F-10.6°C 46% 1.1 mph W1.8 kmh W 2.0 mph3.2 kmh 30.18 in1022.0 mb 0.00 in0.0 mm 0.00 in0.0 mm 0.00 in0.0 mm
08:16 AM 31.3°F-0.4°C 13.5°F-10.3°C 47% 1.3 mph W2.1 kmh W 2.0 mph3.2 kmh 30.17 in1021.7 mb 0.00 in0.0 mm 0.00 in0.0 mm 0.00 in0.0 mm
08:15 AM 31.1°F-0.5°C 13.3°F-10.4°C 47% 1.1 mph W1.8 kmh W 2.0 mph3.2 kmh 30.17 in1021.7 mb 0.00 in0.0 mm 0.00 in0.0 mm 0.00 in0.0 mm
08:14 AM 30.9°F-0.6°C 13.1°F-10.5°C 47% 1.6 mph W2.6 kmh W 3.1 mph5.0 kmh 30.17 in1021.7 mb 0.00 in0.0 mm 0.00 in0.0 mm 0.00 in0.0 mm
08:13 AM 30.9°F-0.6°C 13.1°F-10.5°C 47% 1.3 mph W2.1 kmh W 3.1 mph5.0 kmh 30.17 in1021.7 mb 0.00 in0.0 mm 0.00 in0.0 mm 0.00 in0.0 mm
08:12 AM 30.7°F-0.7°C 12.9°F-10.6°C 47% 1.1 mph W1.8 kmh W 3.1 mph5.0 kmh 30.18 in1022.0 mb 0.00 in0.0 mm 0.00 in0.0 mm 0.00 in0.0 mm
08:11 AM 30.7°F-0.7°C 13.3°F-10.4°C 48% 0.7 mph W1.1 kmh W 2.0 mph3.2 kmh 30.17 in1021.7 mb 0.00 in0.0 mm 0.00 in0.0 mm 0.00 in0.0 mm
08:09 AM 30.7°F-0.7°C 13.3°F-10.4°C 48% 0.4 mph W0.6 kmh W 2.0 mph3.2 kmh 30.17 in1021.7 mb 0.00 in0.0 mm 0.00 in0.0 mm 0.00 in0.0 mm
08:08 AM 30.7°F-0.7°C 13.3°F-10.4°C 48% 0.4 mph W0.6 kmh W 2.0 mph3.2 kmh 30.17 in1021.7 mb 0.00 in0.0 mm 0.00 in0.0 mm 0.00 in0.0 mm
08:07 AM 30.7°F-0.7°C 13.3°F-10.4°C 48% 0.4 mph W0.6 kmh W 1.1 mph1.8 kmh 30.17 in1021.7 mb 0.00 in0.0 mm 0.00 in0.0 mm 0.00 in0.0 mm
08:06 AM 30.7°F-0.7°C 13.3°F-10.4°C 48% 0.7 mph W1.1 kmh W 2.0 mph3.2 kmh 30.17 in1021.7 mb 0.00 in0.0 mm 0.00 in0.0 mm 0.00 in0.0 mm
08:05 AM 30.6°F-0.8°C 13.3°F-10.4°C 48% 0.2 mph W0.3 kmh W 1.1 mph1.8 kmh 30.17 in1021.7 mb 0.00 in0.0 mm 0.00 in0.0 mm 0.00 in0.0 mm
08:04 AM 30.6°F-0.8°C 13.6°F-10.2°C 49% 0.4 mph W0.6 kmh W 1.1 mph1.8 kmh 30.17 in1021.7 mb 0.00 in0.0 mm 0.00 in0.0 mm 0.00 in0.0 mm
08:03 AM 30.6°F-0.8°C 13.6°F-10.2°C 49% 0.4 mph W0.6 kmh W 1.1 mph1.8 kmh 30.17 in1021.7 mb 0.00 in0.0 mm 0.00 in0.0 mm 0.00 in0.0 mm
08:02 AM 30.6°F-0.8°C 13.6°F-10.2°C 49% 0.2 mph W0.3 kmh W 1.1 mph1.8 kmh 30.17 in1021.7 mb 0.00 in0.0 mm 0.00 in0.0 mm 0.00 in0.0 mm
08:01 AM 30.6°F-0.8°C 13.6°F-10.2°C 49% Calm Calm -- 30.17 in1021.7 mb 0.00 in0.0 mm 0.00 in0.0 mm 0.00 in0.0 mm
08:00 AM 30.6°F-0.8°C 13.6°F-10.2°C 49% 0.2 mph W0.3 kmh W 1.1 mph1.8 kmh 30.17 in1021.7 mb 0.00 in0.0 mm 0.00 in0.0 mm 0.00 in0.0 mm
07:59 AM 30.4°F-0.9°C 13.5°F-10.3°C 49% 0.9 mph W1.4 kmh W 1.1 mph1.8 kmh 30.17 in1021.7 mb 0.00 in0.0 mm 0.00 in0.0 mm 0.00 in0.0 mm
07:58 AM 30.4°F-0.9°C 13.5°F-10.3°C 49% 1.1 mph W1.8 kmh W 2.0 mph3.2 kmh 30.17 in1021.7 mb 0.00 in0.0 mm 0.00 in0.0 mm 0.00 in0.0 mm
07:57 AM 30.4°F-0.9°C 13.5°F-10.3°C 49% 1.6 mph W2.6 kmh W 2.0 mph3.2 kmh 30.16 in1021.3 mb 0.00 in0.0 mm 0.00 in0.0 mm 0.00 in0.0 mm
07:56 AM 30.4°F-0.9°C 13.5°F-10.3°C 49% 1.8 mph W2.9 kmh W 3.1 mph5.0 kmh 30.17 in1021.7 mb 0.00 in0.0 mm 0.00 in0.0 mm 0.00 in0.0 mm
07:55 AM 30.2°F-1.0°C 13.8°F-10.1°C 50% 1.3 mph W2.1 kmh W 2.0 mph3.2 kmh 30.16 in1021.3 mb 0.00 in0.0 mm 0.00 in0.0 mm 0.00 in0.0 mm
07:54 AM 30.0°F-1.1°C 14.0°F-10.0°C 51% 1.3 mph WSW2.1 kmh WSW 2.0 mph3.2 kmh 30.16 in1021.3 mb 0.00 in0.0 mm 0.00 in0.0 mm 0.00 in0.0 mm
07:53 AM 30.0°F-1.1°C 14.0°F-10.0°C 51% 1.6 mph WSW2.6 kmh WSW 3.1 mph5.0 kmh 30.16 in1021.3 mb 0.00 in0.0 mm 0.00 in0.0 mm 0.00 in0.0 mm
07:52 AM 29.8°F-1.2°C 14.0°F-10.0°C 51% 1.6 mph WSW2.6 kmh WSW 3.1 mph5.0 kmh 30.16 in1021.3 mb 0.00 in0.0 mm 0.00 in0.0 mm 0.00 in0.0 mm
07:51 AM 29.8°F-1.2°C 14.4°F-9.8°C 52% 1.3 mph WSW2.1 kmh WSW 2.0 mph3.2 kmh 30.16 in1021.3 mb 0.00 in0.0 mm 0.00 in0.0 mm 0.00 in0.0 mm
07:50 AM 29.7°F-1.3°C 14.2°F-9.9°C 52% 1.6 mph WSW2.6 kmh WSW 2.0 mph3.2 kmh 30.16 in1021.3 mb 0.00 in0.0 mm 0.00 in0.0 mm 0.00 in0.0 mm
07:49 AM 29.7°F-1.3°C 14.2°F-9.9°C 52% 1.3 mph WSW2.1 kmh WSW 2.0 mph3.2 kmh 30.16 in1021.3 mb 0.00 in0.0 mm 0.00 in0.0 mm 0.00 in0.0 mm
07:48 AM 29.5°F-1.4°C 14.5°F-9.7°C 53% 1.3 mph WSW2.1 kmh WSW 2.0 mph3.2 kmh 30.16 in1021.3 mb 0.00 in0.0 mm 0.00 in0.0 mm 0.00 in0.0 mm
07:47 AM 29.5°F-1.4°C 14.5°F-9.7°C 53% 1.6 mph WSW2.6 kmh WSW 2.0 mph3.2 kmh 30.16 in1021.3 mb 0.00 in0.0 mm 0.00 in0.0 mm 0.00 in0.0 mm
07:46 AM 29.3°F-1.5°C 14.4°F-9.8°C 53% 1.8 mph WSW2.9 kmh WSW 2.0 mph3.2 kmh 30.16 in1021.3 mb 0.00 in0.0 mm 0.00 in0.0 mm 0.00 in0.0 mm
07:45 AM 29.1°F-1.6°C 14.2°F-9.9°C 53% 2.0 mph WSW3.2 kmh WSW 3.1 mph5.0 kmh 30.16 in1021.3 mb 0.00 in0.0 mm 0.00 in0.0 mm 0.00 in0.0 mm
07:44 AM 28.9°F-1.7°C 14.4°F-9.8°C 54% 2.0 mph WSW3.2 kmh WSW 3.1 mph5.0 kmh 30.16 in1021.3 mb 0.00 in0.0 mm 0.00 in0.0 mm 0.00 in0.0 mm
07:43 AM 28.8°F-1.8°C 14.7°F-9.6°C 55% 1.8 mph SW2.9 kmh SW 3.1 mph5.0 kmh 30.16 in1021.3 mb 0.00 in0.0 mm 0.00 in0.0 mm 0.00 in0.0 mm
07:42 AM 28.8°F-1.8°C 15.1°F-9.4°C 56% 2.0 mph SW3.2 kmh SW 3.1 mph5.0 kmh 30.16 in1021.3 mb 0.00 in0.0 mm 0.00 in0.0 mm 0.00 in0.0 mm
07:41 AM 28.6°F-1.9°C 14.9°F-9.5°C 56% 1.8 mph WSW2.9 kmh WSW 3.1 mph5.0 kmh 30.16 in1021.3 mb 0.00 in0.0 mm 0.00 in0.0 mm 0.00 in0.0 mm
07:40 AM 28.4°F-2.0°C 14.7°F-9.6°C 56% 1.6 mph WSW2.6 kmh WSW 3.1 mph5.0 kmh 30.17 in1021.7 mb 0.00 in0.0 mm 0.00 in0.0 mm 0.00 in0.0 mm
07:39 AM 28.2°F-2.1°C 15.3°F-9.3°C 58% 1.3 mph WSW2.1 kmh WSW 2.0 mph3.2 kmh 30.17 in1021.7 mb 0.00 in0.0 mm 0.00 in0.0 mm 0.00 in0.0 mm
07:38 AM 28.2°F-2.1°C 15.3°F-9.3°C 58% 1.1 mph WSW1.8 kmh WSW 2.0 mph3.2 kmh 30.17 in1021.7 mb 0.00 in0.0 mm 0.00 in0.0 mm 0.00 in0.0 mm
07:37 AM 28.0°F-2.2°C 16.3°F-8.7°C 61% 1.1 mph WSW1.8 kmh WSW 2.0 mph3.2 kmh 30.17 in1021.7 mb 0.00 in0.0 mm 0.00 in0.0 mm 0.00 in0.0 mm
07:36 AM 28.0°F-2.2°C 16.3°F-8.7°C 61% 0.9 mph WSW1.4 kmh WSW 1.1 mph1.8 kmh 30.17 in1021.7 mb 0.00 in0.0 mm 0.00 in0.0 mm 0.00 in0.0 mm
07:35 AM 28.0°F-2.2°C 16.3°F-8.7°C 61% 0.9 mph WSW1.4 kmh WSW 2.0 mph3.2 kmh 30.17 in1021.7 mb 0.00 in0.0 mm 0.00 in0.0 mm 0.00 in0.0 mm
07:34 AM 28.0°F-2.2°C 16.3°F-8.7°C 61% 0.7 mph WSW1.1 kmh WSW 2.0 mph3.2 kmh 30.17 in1021.7 mb 0.00 in0.0 mm 0.00 in0.0 mm 0.00 in0.0 mm
07:33 AM 28.0°F-2.2°C 16.3°F-8.7°C 61% 0.4 mph WSW0.6 kmh WSW 1.1 mph1.8 kmh 30.16 in1021.3 mb 0.00 in0.0 mm 0.00 in0.0 mm 0.00 in0.0 mm
07:32 AM 28.0°F-2.2°C 16.3°F-8.7°C 61% 0.7 mph WSW1.1 kmh WSW 1.1 mph1.8 kmh 30.16 in1021.3 mb 0.00 in0.0 mm 0.00 in0.0 mm 0.00 in0.0 mm
07:31 AM 28.2°F-2.1°C 16.2°F-8.8°C 60% 0.7 mph WSW1.1 kmh WSW 1.1 mph1.8 kmh 30.16 in1021.3 mb 0.00 in0.0 mm 0.00 in0.0 mm 0.00 in0.0 mm
07:30 AM 28.2°F-2.1°C 15.8°F-9.0°C 59% 0.4 mph WSW0.6 kmh WSW 1.1 mph1.8 kmh 30.17 in1021.7 mb 0.00 in0.0 mm 0.00 in0.0 mm 0.00 in0.0 mm
07:29 AM 28.2°F-2.1°C 15.8°F-9.0°C 59% 0.2 mph WSW0.3 kmh WSW 1.1 mph1.8 kmh 30.16 in1021.3 mb 0.00 in0.0 mm 0.00 in0.0 mm 0.00 in0.0 mm
07:28 AM 28.2°F-2.1°C 15.8°F-9.0°C 59% Calm Calm -- 30.16 in1021.3 mb 0.00 in0.0 mm 0.00 in0.0 mm 0.00 in0.0 mm
07:27 AM 28.2°F-2.1°C 15.8°F-9.0°C 59% Calm Calm -- 30.16 in1021.3 mb 0.00 in0.0 mm 0.00 in0.0 mm 0.00 in0.0 mm
07:26 AM 28.4°F-2.0°C 16.0°F-8.9°C 59% Calm Calm -- 30.16 in1021.3 mb 0.00 in0.0 mm 0.00 in0.0 mm 0.00 in0.0 mm
07:25 AM 28.6°F-1.9°C 15.6°F-9.1°C 58% Calm Calm -- 30.17 in1021.7 mb 0.00 in0.0 mm 0.00 in0.0 mm 0.00 in0.0 mm
07:24 AM 28.6°F-1.9°C 15.6°F-9.1°C 58% Calm Calm -- 30.16 in1021.3 mb 0.00 in0.0 mm 0.00 in0.0 mm 0.00 in0.0 mm
07:23 AM 28.6°F-1.9°C 15.6°F-9.1°C 58% Calm Calm -- 30.17 in1021.7 mb 0.00 in0.0 mm 0.00 in0.0 mm 0.00 in0.0 mm
07:22 AM 28.6°F-1.9°C 15.6°F-9.1°C 58% Calm Calm -- 30.16 in1021.3 mb 0.00 in0.0 mm 0.00 in0.0 mm 0.00 in0.0 mm
07:21 AM 28.8°F-1.8°C 16.2°F-8.8°C 59% Calm Calm -- 30.16 in1021.3 mb 0.00 in0.0 mm 0.00 in0.0 mm 0.00 in0.0 mm
07:20 AM 28.8°F-1.8°C 15.8°F-9.0°C 58% Calm Calm -- 30.17 in1021.7 mb 0.00 in0.0 mm 0.00 in0.0 mm 0.00 in0.0 mm
07:19 AM 28.8°F-1.8°C 15.8°F-9.0°C 58% Calm Calm -- 30.17 in1021.7 mb 0.00 in0.0 mm 0.00 in0.0 mm 0.00 in0.0 mm
07:18 AM 28.8°F-1.8°C 15.8°F-9.0°C 58% Calm Calm -- 30.17 in1021.7 mb 0.00 in0.0 mm 0.00 in0.0 mm 0.00 in0.0 mm
07:17 AM 28.9°F-1.7°C 16.0°F-8.9°C 58% Calm Calm -- 30.17 in1021.7 mb 0.00 in0.0 mm 0.00 in0.0 mm 0.00 in0.0 mm
07:16 AM 28.9°F-1.7°C 15.6°F-9.1°C 57% Calm Calm -- 30.17 in1021.7 mb 0.00 in0.0 mm 0.00 in0.0 mm 0.00 in0.0 mm
07:15 AM 28.9°F-1.7°C 15.6°F-9.1°C 57% Calm Calm -- 30.17 in1021.7 mb 0.00 in0.0 mm 0.00 in0.0 mm 0.00 in0.0 mm
07:14 AM 28.9°F-1.7°C 15.6°F-9.1°C 57% Calm Calm -- 30.17 in1021.7 mb 0.00 in0.0 mm 0.00 in0.0 mm 0.00 in0.0 mm
07:13 AM 28.9°F-1.7°C 15.6°F-9.1°C 57% Calm Calm -- 30.17 in1021.7 mb 0.00 in0.0 mm 0.00 in0.0 mm 0.00 in0.0 mm
07:12 AM 28.9°F-1.7°C 15.6°F-9.1°C 57% Calm Calm -- 30.17 in1021.7 mb 0.00 in0.0 mm 0.00 in0.0 mm 0.00 in0.0 mm
07:11 AM 28.9°F-1.7°C 15.6°F-9.1°C 57% Calm Calm -- 30.17 in1021.7 mb 0.00 in0.0 mm 0.00 in0.0 mm 0.00 in0.0 mm
07:10 AM 29.1°F-1.6°C 15.8°F-9.0°C 57% Calm Calm -- 30.17 in1021.7 mb 0.00 in0.0 mm 0.00 in0.0 mm 0.00 in0.0 mm
07:09 AM 29.1°F-1.6°C 15.8°F-9.0°C 57% Calm Calm -- 30.16 in1021.3 mb 0.00 in0.0 mm 0.00 in0.0 mm 0.00 in0.0 mm
07:08 AM 29.1°F-1.6°C 15.8°F-9.0°C 57% Calm Calm -- 30.16 in1021.3 mb 0.00 in0.0 mm 0.00 in0.0 mm 0.00 in0.0 mm
07:07 AM 29.1°F-1.6°C 15.4°F-9.2°C 56% Calm Calm -- 30.16 in1021.3 mb 0.00 in0.0 mm 0.00 in0.0 mm 0.00 in0.0 mm
07:06 AM 29.1°F-1.6°C 14.9°F-9.5°C 55% Calm Calm -- 30.16 in1021.3 mb 0.00 in0.0 mm 0.00 in0.0 mm 0.00 in0.0 mm
07:05 AM 29.1°F-1.6°C 14.9°F-9.5°C 55% Calm Calm -- 30.16 in1021.3 mb 0.00 in0.0 mm 0.00 in0.0 mm 0.00 in0.0 mm
07:04 AM 29.3°F-1.5°C 15.1°F-9.4°C 55% Calm Calm -- 30.16 in1021.3 mb 0.00 in0.0 mm 0.00 in0.0 mm 0.00 in0.0 mm
07:03 AM 29.3°F-1.5°C 14.7°F-9.6°C 54% 0.2 mph WSW0.3 kmh WSW 1.1 mph1.8 kmh 30.16 in1021.3 mb 0.00 in0.0 mm 0.00 in0.0 mm 0.00 in0.0 mm
07:02 AM 29.5°F-1.4°C 14.9°F-9.5°C 54% 0.9 mph WSW1.4 kmh WSW 1.1 mph1.8 kmh 30.16 in1021.3 mb 0.00 in0.0 mm 0.00 in0.0 mm 0.00 in0.0 mm
07:01 AM 29.5°F-1.4°C 14.9°F-9.5°C 54% 1.3 mph WSW2.1 kmh WSW 2.0 mph3.2 kmh 30.16 in1021.3 mb 0.00 in0.0 mm 0.00 in0.0 mm 0.00 in0.0 mm
07:00 AM 29.5°F-1.4°C 14.9°F-9.5°C 54% 1.3 mph WSW2.1 kmh WSW 2.0 mph3.2 kmh 30.16 in1021.3 mb 0.00 in0.0 mm 0.00 in0.0 mm 0.00 in0.0 mm
06:59 AM 29.5°F-1.4°C 14.9°F-9.5°C 54% 1.3 mph WSW2.1 kmh WSW 2.0 mph3.2 kmh 30.16 in1021.3 mb 0.00 in0.0 mm 0.00 in0.0 mm 0.00 in0.0 mm
06:58 AM 29.5°F-1.4°C 14.5°F-9.7°C 53% 1.6 mph WSW2.6 kmh WSW 2.0 mph3.2 kmh 30.16 in1021.3 mb 0.00 in0.0 mm 0.00 in0.0 mm 0.00 in0.0 mm
06:57 AM 29.7°F-1.3°C 14.5°F-9.7°C 53% 0.9 mph WSW1.4 kmh WSW 2.0 mph3.2 kmh 30.16 in1021.3 mb 0.00 in0.0 mm 0.00 in0.0 mm 0.00 in0.0 mm
06:56 AM 29.7°F-1.3°C 14.5°F-9.7°C 53% 0.2 mph WSW0.3 kmh WSW 1.1 mph1.8 kmh 30.16 in1021.3 mb 0.00 in0.0 mm 0.00 in0.0 mm 0.00 in0.0 mm
06:55 AM 29.7°F-1.3°C 14.5°F-9.7°C 53% 0.2 mph WSW0.3 kmh WSW 1.1 mph1.8 kmh 30.16 in1021.3 mb 0.00 in0.0 mm 0.00 in0.0 mm 0.00 in0.0 mm
06:54 AM 29.8°F-1.2°C 14.7°F-9.6°C 53% 0.4 mph WSW0.6 kmh WSW 1.1 mph1.8 kmh 30.16 in1021.3 mb 0.00 in0.0 mm 0.00 in0.0 mm 0.00 in0.0 mm
06:53 AM 29.8°F-1.2°C 14.7°F-9.6°C 53% 0.7 mph WSW1.1 kmh WSW 1.1 mph1.8 kmh 30.16 in1021.3 mb 0.00 in0.0 mm 0.00 in0.0 mm 0.00 in0.0 mm
06:52 AM 29.8°F-1.2°C 14.7°F-9.6°C 53% 0.4 mph WSW0.6 kmh WSW 1.1 mph1.8 kmh 30.15 in1021.0 mb 0.00 in0.0 mm 0.00 in0.0 mm 0.00 in0.0 mm
06:51 AM 30.0°F-1.1°C 14.5°F-9.7°C 52% 0.7 mph WSW1.1 kmh WSW 1.1 mph1.8 kmh 30.15 in1021.0 mb 0.00 in0.0 mm 0.00 in0.0 mm 0.00 in0.0 mm
06:50 AM 30.0°F-1.1°C 14.5°F-9.7°C 52% 0.7 mph WSW1.1 kmh WSW 1.1 mph1.8 kmh 30.15 in1021.0 mb 0.00 in0.0 mm 0.00 in0.0 mm 0.00 in0.0 mm
06:49 AM 30.2°F-1.0°C 14.7°F-9.6°C 52% 0.2 mph WSW0.3 kmh WSW 1.1 mph1.8 kmh 30.16 in1021.3 mb 0.00 in0.0 mm 0.00 in0.0 mm 0.00 in0.0 mm
06:48 AM 30.2°F-1.0°C 14.7°F-9.6°C 52% Calm Calm -- 30.16 in1021.3 mb 0.00 in0.0 mm 0.00 in0.0 mm 0.00 in0.0 mm
06:47 AM 30.4°F-0.9°C 15.3°F-9.3°C 53% Calm Calm -- 30.16 in1021.3 mb 0.00 in0.0 mm 0.00 in0.0 mm 0.00 in0.0 mm
06:46 AM 30.4°F-0.9°C 14.9°F-9.5°C 52% Calm Calm -- 30.16 in1021.3 mb 0.00 in0.0 mm 0.00 in0.0 mm 0.00 in0.0 mm
06:45 AM 30.4°F-0.9°C 14.9°F-9.5°C 52% Calm Calm -- 30.16 in1021.3 mb 0.00 in0.0 mm 0.00 in0.0 mm 0.00 in0.0 mm
06:44 AM 30.6°F-0.8°C 15.1°F-9.4°C 52% Calm Calm -- 30.16 in1021.3 mb 0.00 in0.0 mm 0.00 in0.0 mm 0.00 in0.0 mm
06:43 AM 30.6°F-0.8°C 14.5°F-9.7°C 51% Calm Calm -- 30.16 in1021.3 mb 0.00 in0.0 mm 0.00 in0.0 mm 0.00 in0.0 mm
06:42 AM 30.6°F-0.8°C 14.5°F-9.7°C 51% Calm Calm -- 30.16 in1021.3 mb 0.00 in0.0 mm 0.00 in0.0 mm 0.00 in0.0 mm
06:41 AM 30.6°F-0.8°C 15.1°F-9.4°C 52% Calm Calm -- 30.16 in1021.3 mb 0.00 in0.0 mm 0.00 in0.0 mm 0.00 in0.0 mm
06:40 AM 30.6°F-0.8°C 14.5°F-9.7°C 51% Calm Calm -- 30.16 in1021.3 mb 0.00 in0.0 mm 0.00 in0.0 mm 0.00 in0.0 mm
06:39 AM 30.6°F-0.8°C 14.5°F-9.7°C 51% Calm Calm 1.1 mph1.8 kmh 30.16 in1021.3 mb 0.00 in0.0 mm 0.00 in0.0 mm 0.00 in0.0 mm
06:38 AM 30.7°F-0.7°C 14.7°F-9.6°C 51% 0.2 mph WSW0.3 kmh WSW 1.1 mph1.8 kmh 30.16 in1021.3 mb 0.00 in0.0 mm 0.00 in0.0 mm 0.00 in0.0 mm
06:37 AM 30.7°F-0.7°C 14.7°F-9.6°C 51% 0.4 mph WSW0.6 kmh WSW 1.1 mph1.8 kmh 30.16 in1021.3 mb 0.00 in0.0 mm 0.00 in0.0 mm 0.00 in0.0 mm
06:36 AM 30.7°F-0.7°C 14.4°F-9.8°C 50% 0.4 mph WSW0.6 kmh WSW 1.1 mph1.8 kmh 30.16 in1021.3 mb 0.00 in0.0 mm 0.00 in0.0 mm 0.00 in0.0 mm
06:35 AM 30.7°F-0.7°C 14.4°F-9.8°C 50% 0.2 mph WSW0.3 kmh WSW 1.1 mph1.8 kmh 30.16 in1021.3 mb 0.00 in0.0 mm 0.00 in0.0 mm 0.00 in0.0 mm
06:34 AM 30.7°F-0.7°C 14.4°F-9.8°C 50% Calm Calm 1.1 mph1.8 kmh 30.16 in1021.3 mb 0.00 in0.0 mm 0.00 in0.0 mm 0.00 in0.0 mm
06:33 AM 30.9°F-0.6°C 14.0°F-10.0°C 49% Calm Calm -- 30.16 in1021.3 mb 0.00 in0.0 mm 0.00 in0.0 mm 0.00 in0.0 mm
06:32 AM 30.9°F-0.6°C 14.0°F-10.0°C 49% Calm Calm -- 30.16 in1021.3 mb 0.00 in0.0 mm 0.00 in0.0 mm 0.00 in0.0 mm
06:31 AM 30.9°F-0.6°C 14.0°F-10.0°C 49% Calm Calm -- 30.16 in1021.3 mb 0.00 in0.0 mm 0.00 in0.0 mm 0.00 in0.0 mm
06:30 AM 31.1°F-0.5°C 14.2°F-9.9°C 49% Calm Calm -- 30.16 in1021.3 mb 0.00 in0.0 mm 0.00 in0.0 mm 0.00 in0.0 mm
06:29 AM 31.1°F-0.5°C 14.2°F-9.9°C 49% Calm Calm -- 30.16 in1021.3 mb 0.00 in0.0 mm 0.00 in0.0 mm 0.00 in0.0 mm
06:28 AM 31.3°F-0.4°C 14.4°F-9.8°C 49% Calm Calm -- 30.16 in1021.3 mb 0.00 in0.0 mm 0.00 in0.0 mm 0.00 in0.0 mm
06:27 AM 31.3°F-0.4°C 14.4°F-9.8°C 49% Calm Calm -- 30.16 in1021.3 mb 0.00 in0.0 mm 0.00 in0.0 mm 0.00 in0.0 mm
06:26 AM 31.3°F-0.4°C 14.4°F-9.8°C 49% Calm Calm -- 30.16 in1021.3 mb 0.00 in0.0 mm 0.00 in0.0 mm 0.00 in0.0 mm
06:25 AM 31.3°F-0.4°C 13.8°F-10.1°C 48% 0.2 mph WSW0.3 kmh WSW -- 30.16 in1021.3 mb 0.00 in0.0 mm 0.00 in0.0 mm 0.00 in0.0 mm
06:24 AM 31.3°F-0.4°C 13.8°F-10.1°C 48% 0.9 mph WSW1.4 kmh WSW 2.0 mph3.2 kmh 30.16 in1021.3 mb 0.00 in0.0 mm 0.00 in0.0 mm 0.00 in0.0 mm
06:23 AM 31.5°F-0.3°C 13.6°F-10.2°C 47% 1.1 mph WSW1.8 kmh WSW 2.0 mph3.2 kmh 30.16 in1021.3 mb 0.00 in0.0 mm 0.00 in0.0 mm 0.00 in0.0 mm
06:22 AM 31.5°F-0.3°C 14.0°F-10.0°C 48% 0.7 mph WSW1.1 kmh WSW 1.1 mph1.8 kmh 30.16 in1021.3 mb 0.00 in0.0 mm 0.00 in0.0 mm 0.00 in0.0 mm
06:21 AM 31.5°F-0.3°C 14.5°F-9.7°C 49% 0.2 mph WSW0.3 kmh WSW 1.1 mph1.8 kmh 30.16 in1021.3 mb 0.00 in0.0 mm 0.00 in0.0 mm 0.00 in0.0 mm
06:20 AM 31.5°F-0.3°C 14.0°F-10.0°C 48% 0.2 mph WSW0.3 kmh WSW 1.1 mph1.8 kmh 30.16 in1021.3 mb 0.00 in0.0 mm 0.00 in0.0 mm 0.00 in0.0 mm
06:19 AM 31.5°F-0.3°C 14.0°F-10.0°C 48% Calm Calm -- 30.16 in1021.3 mb 0.00 in0.0 mm 0.00 in0.0 mm 0.00 in0.0 mm
06:18 AM 31.5°F-0.3°C 14.0°F-10.0°C 48% Calm Calm -- 30.16 in1021.3 mb 0.00 in0.0 mm 0.00 in0.0 mm 0.00 in0.0 mm
06:16 AM 31.6°F-0.2°C 14.2°F-9.9°C 48% 0.2 mph WSW0.3 kmh WSW -- 30.16 in1021.3 mb 0.00 in0.0 mm 0.00 in0.0 mm 0.00 in0.0 mm
06:15 AM 31.6°F-0.2°C 13.6°F-10.2°C 47% 0.9 mph WSW1.4 kmh WSW 2.0 mph3.2 kmh 30.16 in1021.3 mb 0.00 in0.0 mm 0.00 in0.0 mm 0.00 in0.0 mm
06:14 AM 31.6°F-0.2°C 13.3°F-10.4°C 46% 0.9 mph WSW1.4 kmh WSW 2.0 mph3.2 kmh 30.16 in1021.3 mb 0.00 in0.0 mm 0.00 in0.0 mm 0.00 in0.0 mm
06:13 AM 31.6°F-0.2°C 13.3°F-10.4°C 46% 0.2 mph WSW0.3 kmh WSW 1.1 mph1.8 kmh 30.16 in1021.3 mb 0.00 in0.0 mm 0.00 in0.0 mm 0.00 in0.0 mm
06:12 AM 31.6°F-0.2°C 13.3°F-10.4°C 46% Calm Calm -- 30.16 in1021.3 mb 0.00 in0.0 mm 0.00 in0.0 mm 0.00 in0.0 mm
06:11 AM 31.8°F-0.1°C 13.5°F-10.3°C 46% Calm Calm -- 30.16 in1021.3 mb 0.00 in0.0 mm 0.00 in0.0 mm 0.00 in0.0 mm
06:10 AM 31.8°F-0.1°C 13.5°F-10.3°C 46% 0.2 mph WSW0.3 kmh WSW 1.1 mph1.8 kmh 30.16 in1021.3 mb 0.00 in0.0 mm 0.00 in0.0 mm 0.00 in0.0 mm
06:09 AM 31.8°F-0.1°C 12.9°F-10.6°C 45% 0.4 mph WSW0.6 kmh WSW 1.1 mph1.8 kmh 30.15 in1021.0 mb 0.00 in0.0 mm 0.00 in0.0 mm 0.00 in0.0 mm
06:08 AM 31.8°F-0.1°C 13.5°F-10.3°C 46% 0.4 mph WSW0.6 kmh WSW 1.1 mph1.8 kmh 30.16 in1021.3 mb 0.00 in0.0 mm 0.00 in0.0 mm 0.00 in0.0 mm
06:07 AM 31.8°F-0.1°C 13.5°F-10.3°C 46% 0.4 mph WSW0.6 kmh WSW 1.1 mph1.8 kmh 30.15 in1021.0 mb 0.00 in0.0 mm 0.00 in0.0 mm 0.00 in0.0 mm
06:06 AM 32.0°F0.0°C 13.1°F-10.5°C 45% Calm Calm 1.1 mph1.8 kmh 30.15 in1021.0 mb 0.00 in0.0 mm 0.00 in0.0 mm 0.00 in0.0 mm
06:05 AM 32.0°F0.0°C 13.1°F-10.5°C 45% 0.2 mph WSW0.3 kmh WSW -- 30.15 in1021.0 mb 0.00 in0.0 mm 0.00 in0.0 mm 0.00 in0.0 mm
06:04 AM 32.0°F0.0°C 12.6°F-10.8°C 44% 0.7 mph WSW1.1 kmh WSW 1.1 mph1.8 kmh 30.15 in1021.0 mb 0.00 in0.0 mm 0.00 in0.0 mm 0.00 in0.0 mm
06:03 AM 32.0°F0.0°C 12.6°F-10.8°C 44% 1.3 mph WSW2.1 kmh WSW 2.0 mph3.2 kmh 30.15 in1021.0 mb 0.00 in0.0 mm 0.00 in0.0 mm 0.00 in0.0 mm
06:02 AM 32.0°F0.0°C 12.6°F-10.8°C 44% 1.1 mph WSW1.8 kmh WSW 2.0 mph3.2 kmh 30.15 in1021.0 mb 0.00 in0.0 mm 0.00 in0.0 mm 0.00 in0.0 mm
06:01 AM 32.0°F0.0°C 12.6°F-10.8°C 44% 0.9 mph WSW1.4 kmh WSW 2.0 mph3.2 kmh 30.15 in1021.0 mb 0.00 in0.0 mm 0.00 in0.0 mm 0.00 in0.0 mm
06:00 AM 32.0°F0.0°C 12.6°F-10.8°C 44% 1.3 mph WSW2.1 kmh WSW 2.0 mph3.2 kmh 30.15 in1021.0 mb 0.00 in0.0 mm 0.00 in0.0 mm 0.00 in0.0 mm
05:59 AM 32.0°F0.0°C 12.6°F-10.8°C 44% 1.6 mph WSW2.6 kmh WSW 3.1 mph5.0 kmh 30.15 in1021.0 mb 0.00 in0.0 mm 0.00 in0.0 mm 0.00 in0.0 mm
05:58 AM 32.0°F0.0°C 12.6°F-10.8°C 44% 2.0 mph WSW3.2 kmh WSW 3.1 mph5.0 kmh 30.15 in1021.0 mb 0.00 in0.0 mm 0.00 in0.0 mm 0.00 in0.0 mm
05:57 AM 32.0°F0.0°C 13.1°F-10.5°C 45% 1.6 mph WSW2.6 kmh WSW 3.1 mph5.0 kmh 30.15 in1021.0 mb 0.00 in0.0 mm 0.00 in0.0 mm 0.00 in0.0 mm
05:56 AM 32.0°F0.0°C 13.1°F-10.5°C 45% 0.7 mph WSW1.1 kmh WSW 2.0 mph3.2 kmh 30.15 in1021.0 mb 0.00 in0.0 mm 0.00 in0.0 mm 0.00 in0.0 mm
05:55 AM 32.0°F0.0°C 13.1°F-10.5°C 45% 0.7 mph WSW1.1 kmh WSW 2.0 mph3.2 kmh 30.15 in1021.0 mb 0.00 in0.0 mm 0.00 in0.0 mm 0.00 in0.0 mm
05:54 AM 32.0°F0.0°C 13.1°F-10.5°C 45% 1.3 mph WSW2.1 kmh WSW 2.0 mph3.2 kmh 30.15 in1021.0 mb 0.00 in0.0 mm 0.00 in0.0 mm 0.00 in0.0 mm
05:53 AM 32.0°F0.0°C 13.1°F-10.5°C 45% 1.3 mph WSW2.1 kmh WSW 2.0 mph3.2 kmh 30.15 in1021.0 mb 0.00 in0.0 mm 0.00 in0.0 mm 0.00 in0.0 mm
05:52 AM 32.0°F0.0°C 13.1°F-10.5°C 45% 1.1 mph WSW1.8 kmh WSW 2.0 mph3.2 kmh 30.15 in1021.0 mb 0.00 in0.0 mm 0.00 in0.0 mm 0.00 in0.0 mm
05:51 AM 32.0°F0.0°C 13.1°F-10.5°C 45% 1.1 mph WSW1.8 kmh WSW 2.0 mph3.2 kmh 30.15 in1021.0 mb 0.00 in0.0 mm 0.00 in0.0 mm 0.00 in0.0 mm
05:50 AM 32.0°F0.0°C 13.1°F-10.5°C 45% 1.1 mph WSW1.8 kmh WSW 2.0 mph3.2 kmh 30.15 in1021.0 mb 0.00 in0.0 mm 0.00 in0.0 mm 0.00 in0.0 mm
05:49 AM 32.0°F0.0°C 13.1°F-10.5°C 45% 2.0 mph W3.2 kmh W 4.3 mph6.9 kmh 30.15 in1021.0 mb 0.00 in0.0 mm 0.00 in0.0 mm 0.00 in0.0 mm
05:48 AM 31.8°F-0.1°C 12.9°F-10.6°C 45% 1.3 mph W2.1 kmh W 4.3 mph6.9 kmh 30.15 in1021.0 mb 0.00 in0.0 mm 0.00 in0.0 mm 0.00 in0.0 mm
05:47 AM 32.0°F0.0°C 13.1°F-10.5°C 45% 0.2 mph W0.3 kmh W 1.1 mph1.8 kmh 30.15 in1021.0 mb 0.00 in0.0 mm 0.00 in0.0 mm 0.00 in0.0 mm
05:46 AM 31.8°F-0.1°C 12.9°F-10.6°C 45% 0.9 mph W1.4 kmh W 2.0 mph3.2 kmh 30.15 in1021.0 mb 0.00 in0.0 mm 0.00 in0.0 mm 0.00 in0.0 mm
05:45 AM 31.8°F-0.1°C 12.9°F-10.6°C 45% 2.2 mph W3.5 kmh W 2.0 mph3.2 kmh 30.14 in1020.7 mb 0.00 in0.0 mm 0.00 in0.0 mm 0.00 in0.0 mm
05:44 AM 31.8°F-0.1°C 12.9°F-10.6°C 45% 2.7 mph W4.3 kmh W 6.3 mph10.1 kmh 30.14 in1020.7 mb 0.00 in0.0 mm 0.00 in0.0 mm 0.00 in0.0 mm
05:43 AM 31.8°F-0.1°C 12.9°F-10.6°C 45% 2.2 mph WNW3.5 kmh WNW 3.1 mph5.0 kmh 30.15 in1021.0 mb 0.00 in0.0 mm 0.00 in0.0 mm 0.00 in0.0 mm
05:42 AM 31.8°F-0.1°C 13.5°F-10.3°C 46% 2.2 mph WSW3.5 kmh WSW 5.4 mph8.7 kmh 30.15 in1021.0 mb 0.00 in0.0 mm 0.00 in0.0 mm 0.00 in0.0 mm
05:41 AM 31.8°F-0.1°C 13.5°F-10.3°C 46% 1.3 mph W2.1 kmh W 5.4 mph8.7 kmh 30.15 in1021.0 mb 0.00 in0.0 mm 0.00 in0.0 mm 0.00 in0.0 mm
05:40 AM 31.8°F-0.1°C 13.5°F-10.3°C 46% 0.7 mph W1.1 kmh W 1.1 mph1.8 kmh 30.15 in1021.0 mb 0.00 in0.0 mm 0.00 in0.0 mm 0.00 in0.0 mm
05:39 AM 31.6°F-0.2°C 13.3°F-10.4°C 46% 1.1 mph W1.8 kmh W 2.0 mph3.2 kmh 30.15 in1021.0 mb 0.00 in0.0 mm 0.00 in0.0 mm 0.00 in0.0 mm
05:38 AM 31.6°F-0.2°C 13.3°F-10.4°C 46% 1.1 mph W1.8 kmh W 2.0 mph3.2 kmh 30.15 in1021.0 mb 0.00 in0.0 mm 0.00 in0.0 mm 0.00 in0.0 mm
05:37 AM 31.6°F-0.2°C 13.3°F-10.4°C 46% 1.3 mph W2.1 kmh W 2.0 mph3.2 kmh 30.15 in1021.0 mb 0.00 in0.0 mm 0.00 in0.0 mm 0.00 in0.0 mm
05:36 AM 31.6°F-0.2°C 13.3°F-10.4°C 46% 1.8 mph W2.9 kmh W 3.1 mph5.0 kmh 30.15 in1021.0 mb 0.00 in0.0 mm 0.00 in0.0 mm 0.00 in0.0 mm
05:35 AM 31.6°F-0.2°C 13.3°F-10.4°C 46% 2.2 mph W3.5 kmh W 4.3 mph6.9 kmh 30.15 in1021.0 mb 0.00 in0.0 mm 0.00 in0.0 mm 0.00 in0.0 mm
05:34 AM 31.6°F-0.2°C 13.3°F-10.4°C 46% 2.2 mph WNW3.5 kmh WNW 4.3 mph6.9 kmh 30.14 in1020.7 mb 0.00 in0.0 mm 0.00 in0.0 mm 0.00 in0.0 mm
05:33 AM 31.6°F-0.2°C 13.6°F-10.2°C 47% 1.6 mph W2.6 kmh W 4.3 mph6.9 kmh 30.14 in1020.7 mb 0.00 in0.0 mm 0.00 in0.0 mm 0.00 in0.0 mm
05:32 AM 31.6°F-0.2°C 13.3°F-10.4°C 46% 1.1 mph WSW1.8 kmh WSW 3.1 mph5.0 kmh 30.14 in1020.7 mb 0.00 in0.0 mm 0.00 in0.0 mm 0.00 in0.0 mm
05:31 AM 31.6°F-0.2°C 13.3°F-10.4°C 46% 1.8 mph WSW2.9 kmh WSW 3.1 mph5.0 kmh 30.14 in1020.7 mb 0.00 in0.0 mm 0.00 in0.0 mm 0.00 in0.0 mm
05:30 AM 31.6°F-0.2°C 13.6°F-10.2°C 47% 1.6 mph WSW2.6 kmh WSW 2.0 mph3.2 kmh 30.14 in1020.7 mb 0.00 in0.0 mm 0.00 in0.0 mm 0.00 in0.0 mm
05:29 AM 31.6°F-0.2°C 13.3°F-10.4°C 46% 1.6 mph WSW2.6 kmh WSW 2.0 mph3.2 kmh 30.14 in1020.7 mb 0.00 in0.0 mm 0.00 in0.0 mm 0.00 in0.0 mm
05:28 AM 31.6°F-0.2°C 13.3°F-10.4°C 46% 1.8 mph WSW2.9 kmh WSW 3.1 mph5.0 kmh 30.14 in1020.7 mb 0.00 in0.0 mm 0.00 in0.0 mm 0.00 in0.0 mm
05:27 AM 31.6°F-0.2°C 13.3°F-10.4°C 46% 2.9 mph WNW4.7 kmh WNW 3.1 mph5.0 kmh 30.14 in1020.7 mb 0.00 in0.0 mm 0.00 in0.0 mm 0.00 in0.0 mm
05:26 AM 31.6°F-0.2°C 13.3°F-10.4°C 46% 2.9 mph W4.7 kmh W 6.3 mph10.1 kmh 30.14 in1020.7 mb 0.00 in0.0 mm 0.00 in0.0 mm 0.00 in0.0 mm
05:25 AM 31.6°F-0.2°C 13.3°F-10.4°C 46% 1.8 mph WSW2.9 kmh WSW 4.3 mph6.9 kmh 30.14 in1020.7 mb 0.00 in0.0 mm 0.00 in0.0 mm 0.00 in0.0 mm
05:24 AM 31.6°F-0.2°C 13.3°F-10.4°C 46% 2.0 mph WSW3.2 kmh WSW 4.3 mph6.9 kmh 30.14 in1020.7 mb 0.00 in0.0 mm 0.00 in0.0 mm 0.00 in0.0 mm
05:23 AM 31.6°F-0.2°C 13.3°F-10.4°C 46% 2.5 mph WSW4.0 kmh WSW 4.3 mph6.9 kmh 30.14 in1020.7 mb 0.00 in0.0 mm 0.00 in0.0 mm 0.00 in0.0 mm
05:22 AM 31.6°F-0.2°C 13.3°F-10.4°C 46% 2.2 mph W3.5 kmh W 3.1 mph5.0 kmh 30.14 in1020.7 mb 0.00 in0.0 mm 0.00 in0.0 mm 0.00 in0.0 mm
05:21 AM 31.8°F-0.1°C 13.5°F-10.3°C 46% 2.0 mph WSW3.2 kmh WSW 3.1 mph5.0 kmh 30.14 in1020.7 mb 0.00 in0.0 mm 0.00 in0.0 mm 0.00 in0.0 mm
05:20 AM 31.8°F-0.1°C 13.5°F-10.3°C 46% 2.2 mph W3.5 kmh W 4.3 mph6.9 kmh 30.14 in1020.7 mb 0.00 in0.0 mm 0.00 in0.0 mm 0.00 in0.0 mm
05:19 AM 31.8°F-0.1°C 13.5°F-10.3°C 46% 2.2 mph WSW3.5 kmh WSW 4.3 mph6.9 kmh 30.14 in1020.7 mb 0.00 in0.0 mm 0.00 in0.0 mm 0.00 in0.0 mm
05:18 AM 31.8°F-0.1°C 13.5°F-10.3°C 46% 2.2 mph W3.5 kmh W 3.1 mph5.0 kmh 30.13 in1020.3 mb 0.00 in0.0 mm 0.00 in0.0 mm 0.00 in0.0 mm
05:17 AM 31.8°F-0.1°C 13.5°F-10.3°C 46% 2.5 mph WNW4.0 kmh WNW 4.3 mph6.9 kmh 30.14 in1020.7 mb 0.00 in0.0 mm 0.00 in0.0 mm 0.00 in0.0 mm
05:16 AM 31.8°F-0.1°C 13.5°F-10.3°C 46% 2.5 mph WNW4.0 kmh WNW 4.3 mph6.9 kmh 30.13 in1020.3 mb 0.00 in0.0 mm 0.00 in0.0 mm 0.00 in0.0 mm
05:15 AM 31.8°F-0.1°C 13.5°F-10.3°C 46% 2.2 mph W3.5 kmh W 3.1 mph5.0 kmh 30.14 in1020.7 mb 0.00 in0.0 mm 0.00 in0.0 mm 0.00 in0.0 mm
05:14 AM 31.8°F-0.1°C 13.5°F-10.3°C 46% 2.5 mph W4.0 kmh W 3.1 mph5.0 kmh 30.14 in1020.7 mb 0.00 in0.0 mm 0.00 in0.0 mm 0.00 in0.0 mm
05:13 AM 32.0°F0.0°C 13.6°F-10.2°C 46% 3.1 mph WNW5.0 kmh WNW 4.3 mph6.9 kmh 30.14 in1020.7 mb 0.00 in0.0 mm 0.00 in0.0 mm 0.00 in0.0 mm
05:12 AM 32.0°F0.0°C 13.6°F-10.2°C 46% 3.1 mph W5.0 kmh W 5.4 mph8.7 kmh 30.13 in1020.3 mb 0.00 in0.0 mm 0.00 in0.0 mm 0.00 in0.0 mm
05:11 AM 32.0°F0.0°C 13.6°F-10.2°C 46% 2.5 mph WSW4.0 kmh WSW 5.4 mph8.7 kmh 30.13 in1020.3 mb 0.00 in0.0 mm 0.00 in0.0 mm 0.00 in0.0 mm
05:10 AM 31.8°F-0.1°C 13.5°F-10.3°C 46% 2.7 mph W4.3 kmh W 3.1 mph5.0 kmh 30.13 in1020.3 mb 0.00 in0.0 mm 0.00 in0.0 mm 0.00 in0.0 mm
05:09 AM 31.8°F-0.1°C 13.5°F-10.3°C 46% 2.7 mph WSW4.3 kmh WSW 6.3 mph10.1 kmh 30.13 in1020.3 mb 0.00 in0.0 mm 0.00 in0.0 mm 0.00 in0.0 mm
05:08 AM 31.8°F-0.1°C 13.5°F-10.3°C 46% 2.9 mph WSW4.7 kmh WSW 4.3 mph6.9 kmh 30.13 in1020.3 mb 0.00 in0.0 mm 0.00 in0.0 mm 0.00 in0.0 mm
05:07 AM 31.8°F-0.1°C 13.5°F-10.3°C 46% 3.1 mph WSW5.0 kmh WSW 4.3 mph6.9 kmh 30.14 in1020.7 mb 0.00 in0.0 mm 0.00 in0.0 mm 0.00 in0.0 mm
05:06 AM 31.8°F-0.1°C 13.5°F-10.3°C 46% 2.5 mph W4.0 kmh W 4.3 mph6.9 kmh 30.14 in1020.7 mb 0.00 in0.0 mm 0.00 in0.0 mm 0.00 in0.0 mm
05:05 AM 31.8°F-0.1°C 13.8°F-10.1°C 47% 2.0 mph WNW3.2 kmh WNW 4.3 mph6.9 kmh 30.13 in1020.3 mb 0.00 in0.0 mm 0.00 in0.0 mm 0.00 in0.0 mm
05:04 AM 31.8°F-0.1°C 13.5°F-10.3°C 46% 2.0 mph W3.2 kmh W 3.1 mph5.0 kmh 30.13 in1020.3 mb 0.00 in0.0 mm 0.00 in0.0 mm 0.00 in0.0 mm
05:03 AM 31.8°F-0.1°C 13.5°F-10.3°C 46% 2.7 mph W4.3 kmh W 4.3 mph6.9 kmh 30.13 in1020.3 mb 0.00 in0.0 mm 0.00 in0.0 mm 0.00 in0.0 mm
05:02 AM 31.8°F-0.1°C 13.5°F-10.3°C 46% 2.2 mph WSW3.5 kmh WSW 3.1 mph5.0 kmh 30.13 in1020.3 mb 0.00 in0.0 mm 0.00 in0.0 mm 0.00 in0.0 mm
05:01 AM 31.8°F-0.1°C 13.5°F-10.3°C 46% 1.8 mph W2.9 kmh W 3.1 mph5.0 kmh 30.13 in1020.3 mb 0.00 in0.0 mm 0.00 in0.0 mm 0.00 in0.0 mm
05:00 AM 31.8°F-0.1°C 13.8°F-10.1°C 47% 2.0 mph W3.2 kmh W 3.1 mph5.0 kmh 30.13 in1020.3 mb 0.00 in0.0 mm 0.00 in0.0 mm 0.00 in0.0 mm
04:59 AM 31.8°F-0.1°C 13.5°F-10.3°C 46% 2.5 mph W4.0 kmh W 3.1 mph5.0 kmh 30.13 in1020.3 mb 0.00 in0.0 mm 0.00 in0.0 mm 0.00 in0.0 mm
04:58 AM 31.8°F-0.1°C 13.5°F-10.3°C 46% 3.1 mph W5.0 kmh W 5.4 mph8.7 kmh 30.13 in1020.3 mb 0.00 in0.0 mm 0.00 in0.0 mm 0.00 in0.0 mm
04:57 AM 31.8°F-0.1°C 13.5°F-10.3°C 46% 2.9 mph WNW4.7 kmh WNW 4.3 mph6.9 kmh 30.13 in1020.3 mb 0.00 in0.0 mm 0.00 in0.0 mm 0.00 in0.0 mm
04:56 AM 31.8°F-0.1°C 13.8°F-10.1°C 47% 2.5 mph W4.0 kmh W 3.1 mph5.0 kmh 30.13 in1020.3 mb 0.00 in0.0 mm 0.00 in0.0 mm 0.00 in0.0 mm
04:55 AM 31.8°F-0.1°C 13.8°F-10.1°C 47% 2.2 mph WNW3.5 kmh WNW 4.3 mph6.9 kmh 30.13 in1020.3 mb 0.00 in0.0 mm 0.00 in0.0 mm 0.00 in0.0 mm
04:54 AM 31.8°F-0.1°C 13.8°F-10.1°C 47% 1.6 mph WSW2.6 kmh WSW 3.1 mph5.0 kmh 30.13 in1020.3 mb 0.00 in0.0 mm 0.00 in0.0 mm 0.00 in0.0 mm
04:53 AM 31.8°F-0.1°C 13.8°F-10.1°C 47% 2.0 mph WSW3.2 kmh WSW 3.1 mph5.0 kmh 30.13 in1020.3 mb 0.00 in0.0 mm 0.00 in0.0 mm 0.00 in0.0 mm
04:52 AM 31.8°F-0.1°C 13.8°F-10.1°C 47% 2.5 mph W4.0 kmh W 6.3 mph10.1 kmh 30.13 in1020.3 mb 0.00 in0.0 mm 0.00 in0.0 mm 0.00 in0.0 mm
04:51 AM 31.8°F-0.1°C 13.8°F-10.1°C 47% 2.7 mph W4.3 kmh W 6.3 mph10.1 kmh 30.13 in1020.3 mb 0.00 in0.0 mm 0.00 in0.0 mm 0.00 in0.0 mm
04:50 AM 31.8°F-0.1°C 13.8°F-10.1°C 47% 2.5 mph W4.0 kmh W 4.3 mph6.9 kmh 30.13 in1020.3 mb 0.00 in0.0 mm 0.00 in0.0 mm 0.00 in0.0 mm
04:49 AM 31.8°F-0.1°C 13.8°F-10.1°C 47% 2.2 mph W3.5 kmh W 3.1 mph5.0 kmh 30.13 in1020.3 mb 0.00 in0.0 mm 0.00 in0.0 mm 0.00 in0.0 mm
04:48 AM 31.6°F-0.2°C 13.6°F-10.2°C 47% 2.2 mph WSW3.5 kmh WSW 3.1 mph5.0 kmh 30.13 in1020.3 mb 0.00 in0.0 mm 0.00 in0.0 mm 0.00 in0.0 mm
04:47 AM 31.6°F-0.2°C 13.6°F-10.2°C 47% 2.5 mph W4.0 kmh W 4.3 mph6.9 kmh 30.13 in1020.3 mb 0.00 in0.0 mm 0.00 in0.0 mm 0.00 in0.0 mm
04:46 AM 31.6°F-0.2°C 14.2°F-9.9°C 48% 1.3 mph W2.1 kmh W 3.1 mph5.0 kmh 30.13 in1020.3 mb 0.00 in0.0 mm 0.00 in0.0 mm 0.00 in0.0 mm
04:45 AM 31.6°F-0.2°C 13.6°F-10.2°C 47% 0.7 mph WNW1.1 kmh WNW 2.0 mph3.2 kmh 30.13 in1020.3 mb 0.00 in0.0 mm 0.00 in0.0 mm 0.00 in0.0 mm
04:44 AM 31.6°F-0.2°C 14.2°F-9.9°C 48% 1.1 mph WNW1.8 kmh WNW 2.0 mph3.2 kmh 30.13 in1020.3 mb 0.00 in0.0 mm 0.00 in0.0 mm 0.00 in0.0 mm
04:43 AM 31.6°F-0.2°C 13.6°F-10.2°C 47% 1.3 mph W2.1 kmh W 2.0 mph3.2 kmh 30.13 in1020.3 mb 0.00 in0.0 mm 0.00 in0.0 mm 0.00 in0.0 mm
04:42 AM 31.6°F-0.2°C 14.2°F-9.9°C 48% 1.3 mph W2.1 kmh W 2.0 mph3.2 kmh 30.13 in1020.3 mb 0.00 in0.0 mm 0.00 in0.0 mm 0.00 in0.0 mm
04:41 AM 31.6°F-0.2°C 13.6°F-10.2°C 47% 1.3 mph W2.1 kmh W 2.0 mph3.2 kmh 30.13 in1020.3 mb 0.00 in0.0 mm 0.00 in0.0 mm 0.00 in0.0 mm
04:40 AM 31.6°F-0.2°C 14.2°F-9.9°C 48% 1.6 mph W2.6 kmh W 2.0 mph3.2 kmh 30.13 in1020.3 mb 0.00 in0.0 mm 0.00 in0.0 mm 0.00 in0.0 mm
04:39 AM 31.5°F-0.3°C 13.6°F-10.2°C 47% 1.6 mph WNW2.6 kmh WNW 3.1 mph5.0 kmh 30.13 in1020.3 mb 0.00 in0.0 mm 0.00 in0.0 mm 0.00 in0.0 mm
04:38 AM 31.5°F-0.3°C 14.0°F-10.0°C 48% 1.3 mph WNW2.1 kmh WNW 3.1 mph5.0 kmh 30.13 in1020.3 mb 0.00 in0.0 mm 0.00 in0.0 mm 0.00 in0.0 mm
04:37 AM 31.5°F-0.3°C 14.0°F-10.0°C 48% 1.1 mph WNW1.8 kmh WNW 2.0 mph3.2 kmh 30.13 in1020.3 mb 0.00 in0.0 mm 0.00 in0.0 mm 0.00 in0.0 mm
04:36 AM 31.5°F-0.3°C 14.0°F-10.0°C 48% 1.1 mph WNW1.8 kmh WNW 2.0 mph3.2 kmh 30.13 in1020.3 mb 0.00 in0.0 mm 0.00 in0.0 mm 0.00 in0.0 mm
04:35 AM 31.5°F-0.3°C 14.0°F-10.0°C 48% 1.6 mph WNW2.6 kmh WNW 2.0 mph3.2 kmh 30.13 in1020.3 mb 0.00 in0.0 mm 0.00 in0.0 mm 0.00 in0.0 mm
04:34 AM 31.5°F-0.3°C 14.0°F-10.0°C 48% 1.6 mph WNW2.6 kmh WNW 3.1 mph5.0 kmh 30.13 in1020.3 mb 0.00 in0.0 mm 0.00 in0.0 mm 0.00 in0.0 mm
04:33 AM 31.5°F-0.3°C 14.0°F-10.0°C 48% 1.6 mph WSW2.6 kmh WSW 3.1 mph5.0 kmh 30.13 in1020.3 mb 0.00 in0.0 mm 0.00 in0.0 mm 0.00 in0.0 mm
04:32 AM 31.5°F-0.3°C 14.0°F-10.0°C 48% 1.6 mph WSW2.6 kmh WSW 3.1 mph5.0 kmh 30.13 in1020.3 mb 0.00 in0.0 mm 0.00 in0.0 mm 0.00 in0.0 mm
04:31 AM 31.5°F-0.3°C 14.0°F-10.0°C 48% 1.6 mph W2.6 kmh W 2.0 mph3.2 kmh 30.13 in1020.3 mb 0.00 in0.0 mm 0.00 in0.0 mm 0.00 in0.0 mm
04:30 AM 31.5°F-0.3°C 14.0°F-10.0°C 48% 1.8 mph W2.9 kmh W 3.1 mph5.0 kmh 30.13 in1020.3 mb 0.00 in0.0 mm 0.00 in0.0 mm 0.00 in0.0 mm
04:29 AM 31.5°F-0.3°C 14.5°F-9.7°C 49% 1.3 mph NW2.1 kmh NW 3.1 mph5.0 kmh 30.13 in1020.3 mb 0.00 in0.0 mm 0.00 in0.0 mm 0.00 in0.0 mm
04:28 AM 31.5°F-0.3°C 14.0°F-10.0°C 48% 1.1 mph NW1.8 kmh NW 2.0 mph3.2 kmh 30.13 in1020.3 mb 0.00 in0.0 mm 0.00 in0.0 mm 0.00 in0.0 mm
04:27 AM 31.5°F-0.3°C 14.0°F-10.0°C 48% 1.6 mph NW2.6 kmh NW 3.1 mph5.0 kmh 30.13 in1020.3 mb 0.00 in0.0 mm 0.00 in0.0 mm 0.00 in0.0 mm
04:26 AM 31.5°F-0.3°C 14.5°F-9.7°C 49% 1.6 mph NW2.6 kmh NW 3.1 mph5.0 kmh 30.13 in1020.3 mb 0.00 in0.0 mm 0.00 in0.0 mm 0.00 in0.0 mm
04:25 AM 31.5°F-0.3°C 14.5°F-9.7°C 49% 0.9 mph W1.4 kmh W 2.0 mph3.2 kmh 30.13 in1020.3 mb 0.00 in0.0 mm 0.00 in0.0 mm 0.00 in0.0 mm
04:24 AM 31.5°F-0.3°C 14.0°F-10.0°C 48% 1.1 mph W1.8 kmh W 2.0 mph3.2 kmh 30.12 in1020.0 mb 0.00 in0.0 mm 0.00 in0.0 mm 0.00 in0.0 mm
04:23 AM 31.5°F-0.3°C 14.0°F-10.0°C 48% 1.3 mph W2.1 kmh W 2.0 mph3.2 kmh 30.13 in1020.3 mb 0.00 in0.0 mm 0.00 in0.0 mm 0.00 in0.0 mm
04:22 AM 31.5°F-0.3°C 14.0°F-10.0°C 48% 1.1 mph W1.8 kmh W 2.0 mph3.2 kmh 30.12 in1020.0 mb 0.00 in0.0 mm 0.00 in0.0 mm 0.00 in0.0 mm
04:21 AM 31.5°F-0.3°C 14.0°F-10.0°C 48% 1.3 mph W2.1 kmh W 2.0 mph3.2 kmh 30.13 in1020.3 mb 0.00 in0.0 mm 0.00 in0.0 mm 0.00 in0.0 mm
04:20 AM 31.5°F-0.3°C 14.0°F-10.0°C 48% 1.6 mph WSW2.6 kmh WSW 2.0 mph3.2 kmh 30.13 in1020.3 mb 0.00 in0.0 mm 0.00 in0.0 mm 0.00 in0.0 mm
04:19 AM 31.5°F-0.3°C 14.5°F-9.7°C 49% 1.3 mph WNW2.1 kmh WNW 2.0 mph3.2 kmh 30.12 in1020.0 mb 0.00 in0.0 mm 0.00 in0.0 mm 0.00 in0.0 mm
04:18 AM 31.5°F-0.3°C 14.5°F-9.7°C 49% 1.3 mph WNW2.1 kmh WNW 2.0 mph3.2 kmh 30.13 in1020.3 mb 0.00 in0.0 mm 0.00 in0.0 mm 0.00 in0.0 mm
04:17 AM 31.5°F-0.3°C 14.5°F-9.7°C 49% 1.6 mph WNW2.6 kmh WNW 2.0 mph3.2 kmh 30.13 in1020.3 mb 0.00 in0.0 mm 0.00 in0.0 mm 0.00 in0.0 mm
04:16 AM 31.5°F-0.3°C 14.5°F-9.7°C 49% 1.3 mph WNW2.1 kmh WNW 2.0 mph3.2 kmh 30.13 in1020.3 mb 0.00 in0.0 mm 0.00 in0.0 mm 0.00 in0.0 mm
04:15 AM 31.5°F-0.3°C 14.5°F-9.7°C 49% 1.3 mph WNW2.1 kmh WNW 2.0 mph3.2 kmh 30.13 in1020.3 mb 0.00 in0.0 mm 0.00 in0.0 mm 0.00 in0.0 mm
04:14 AM 31.5°F-0.3°C 14.5°F-9.7°C 49% 1.6 mph WNW2.6 kmh WNW 3.1 mph5.0 kmh 30.13 in1020.3 mb 0.00 in0.0 mm 0.00 in0.0 mm 0.00 in0.0 mm
04:13 AM 31.5°F-0.3°C 14.5°F-9.7°C 49% 1.8 mph WNW2.9 kmh WNW 4.3 mph6.9 kmh 30.12 in1020.0 mb 0.00 in0.0 mm 0.00 in0.0 mm 0.00 in0.0 mm
04:12 AM 31.3°F-0.4°C 14.4°F-9.8°C 49% 1.6 mph W2.6 kmh W 2.0 mph3.2 kmh 30.13 in1020.3 mb 0.00 in0.0 mm 0.00 in0.0 mm 0.00 in0.0 mm
04:11 AM 31.3°F-0.4°C 14.4°F-9.8°C 49% 1.3 mph W2.1 kmh W 2.0 mph3.2 kmh 30.13 in1020.3 mb 0.00 in0.0 mm 0.00 in0.0 mm 0.00 in0.0 mm
04:10 AM 31.3°F-0.4°C 14.4°F-9.8°C 49% 1.3 mph W2.1 kmh W 2.0 mph3.2 kmh 30.13 in1020.3 mb 0.00 in0.0 mm 0.00 in0.0 mm 0.00 in0.0 mm
04:09 AM 31.3°F-0.4°C 14.4°F-9.8°C 49% 1.3 mph W2.1 kmh W 2.0 mph3.2 kmh 30.13 in1020.3 mb 0.00 in0.0 mm 0.00 in0.0 mm 0.00 in0.0 mm
04:08 AM 31.3°F-0.4°C 14.4°F-9.8°C 49% 0.9 mph W1.4 kmh W 3.1 mph5.0 kmh 30.13 in1020.3 mb 0.00 in0.0 mm 0.00 in0.0 mm 0.00 in0.0 mm
04:07 AM 31.3°F-0.4°C 14.4°F-9.8°C 49% Calm Calm 1.1 mph1.8 kmh 30.13 in1020.3 mb 0.00 in0.0 mm 0.00 in0.0 mm 0.00 in0.0 mm
04:06 AM 31.3°F-0.4°C 14.4°F-9.8°C 49% Calm Calm -- 30.13 in1020.3 mb 0.00 in0.0 mm 0.00 in0.0 mm 0.00 in0.0 mm
04:05 AM 31.3°F-0.4°C 14.4°F-9.8°C 49% Calm Calm -- 30.13 in1020.3 mb 0.00 in0.0 mm 0.00 in0.0 mm 0.00 in0.0 mm
04:04 AM 31.3°F-0.4°C 14.4°F-9.8°C 49% Calm Calm -- 30.13 in1020.3 mb 0.00 in0.0 mm 0.00 in0.0 mm 0.00 in0.0 mm
04:03 AM 31.3°F-0.4°C 14.4°F-9.8°C 49% Calm Calm -- 30.14 in1020.7 mb 0.00 in0.0 mm 0.00 in0.0 mm 0.00 in0.0 mm
04:02 AM 31.3°F-0.4°C 14.4°F-9.8°C 49% Calm Calm -- 30.14 in1020.7 mb 0.00 in0.0 mm 0.00 in0.0 mm 0.00 in0.0 mm
04:01 AM 31.5°F-0.3°C 14.5°F-9.7°C 49% Calm Calm -- 30.14 in1020.7 mb 0.00 in0.0 mm 0.00 in0.0 mm 0.00 in0.0 mm
04:00 AM 31.5°F-0.3°C 14.5°F-9.7°C 49% Calm Calm -- 30.14 in1020.7 mb 0.00 in0.0 mm 0.00 in0.0 mm 0.00 in0.0 mm
03:59 AM 31.5°F-0.3°C 14.5°F-9.7°C 49% Calm Calm -- 30.13 in1020.3 mb 0.00 in0.0 mm 0.00 in0.0 mm 0.00 in0.0 mm
03:58 AM 31.5°F-0.3°C 14.5°F-9.7°C 49% Calm Calm -- 30.14 in1020.7 mb 0.00 in0.0 mm 0.00 in0.0 mm 0.00 in0.0 mm
03:57 AM 31.5°F-0.3°C 14.5°F-9.7°C 49% Calm Calm -- 30.13 in1020.3 mb 0.00 in0.0 mm 0.00 in0.0 mm 0.00 in0.0 mm
03:56 AM 31.5°F-0.3°C 14.5°F-9.7°C 49% Calm Calm -- 30.13 in1020.3 mb 0.00 in0.0 mm 0.00 in0.0 mm 0.00 in0.0 mm
03:55 AM 31.5°F-0.3°C 14.5°F-9.7°C 49% Calm Calm -- 30.13 in1020.3 mb 0.00 in0.0 mm 0.00 in0.0 mm 0.00 in0.0 mm
03:54 AM 31.5°F-0.3°C 14.5°F-9.7°C 49% Calm Calm -- 30.13 in1020.3 mb 0.00 in0.0 mm 0.00 in0.0 mm 0.00 in0.0 mm
03:53 AM 31.5°F-0.3°C 14.5°F-9.7°C 49% Calm Calm -- 30.13 in1020.3 mb 0.00 in0.0 mm 0.00 in0.0 mm 0.00 in0.0 mm
03:52 AM 31.6°F-0.2°C 14.7°F-9.6°C 49% Calm Calm -- 30.13 in1020.3 mb 0.00 in0.0 mm 0.00 in0.0 mm 0.00 in0.0 mm
03:51 AM 31.6°F-0.2°C 14.7°F-9.6°C 49% Calm Calm -- 30.14 in1020.7 mb 0.00 in0.0 mm 0.00 in0.0 mm 0.00 in0.0 mm
03:50 AM 31.6°F-0.2°C 14.7°F-9.6°C 49% Calm Calm -- 30.13 in1020.3 mb 0.00 in0.0 mm 0.00 in0.0 mm 0.00 in0.0 mm
03:49 AM 31.6°F-0.2°C 14.2°F-9.9°C 48% Calm Calm -- 30.13 in1020.3 mb 0.00 in0.0 mm 0.00 in0.0 mm 0.00 in0.0 mm
03:48 AM 31.6°F-0.2°C 14.2°F-9.9°C 48% Calm Calm -- 30.13 in1020.3 mb 0.00 in0.0 mm 0.00 in0.0 mm 0.00 in0.0 mm
03:47 AM 31.6°F-0.2°C 14.2°F-9.9°C 48% Calm Calm -- 30.13 in1020.3 mb 0.00 in0.0 mm 0.00 in0.0 mm 0.00 in0.0 mm
03:46 AM 31.6°F-0.2°C 14.2°F-9.9°C 48% Calm Calm -- 30.13 in1020.3 mb 0.00 in0.0 mm 0.00 in0.0 mm 0.00 in0.0 mm
03:45 AM 31.6°F-0.2°C 14.2°F-9.9°C 48% Calm Calm -- 30.13 in1020.3 mb 0.00 in0.0 mm 0.00 in0.0 mm 0.00 in0.0 mm
03:44 AM 31.8°F-0.1°C 14.4°F-9.8°C 48% Calm Calm -- 30.13 in1020.3 mb 0.00 in0.0 mm 0.00 in0.0 mm 0.00 in0.0 mm
03:43 AM 31.8°F-0.1°C 14.4°F-9.8°C 48% Calm Calm -- 30.13 in1020.3 mb 0.00 in0.0 mm 0.00 in0.0 mm 0.00 in0.0 mm
03:42 AM 31.8°F-0.1°C 14.4°F-9.8°C 48% Calm Calm -- 30.14 in1020.7 mb 0.00 in0.0 mm 0.00 in0.0 mm 0.00 in0.0 mm
03:41 AM 31.8°F-0.1°C 14.4°F-9.8°C 48% Calm Calm -- 30.14 in1020.7 mb 0.00 in0.0 mm 0.00 in0.0 mm 0.00 in0.0 mm
03:40 AM 31.8°F-0.1°C 14.4°F-9.8°C 48% Calm Calm -- 30.14 in1020.7 mb 0.00 in0.0 mm 0.00 in0.0 mm 0.00 in0.0 mm
03:39 AM 31.8°F-0.1°C 14.4°F-9.8°C 48% Calm Calm -- 30.14 in1020.7 mb 0.00 in0.0 mm 0.00 in0.0 mm 0.00 in0.0 mm
03:38 AM 31.8°F-0.1°C 14.4°F-9.8°C 48% Calm Calm -- 30.14 in1020.7 mb 0.00 in0.0 mm 0.00 in0.0 mm 0.00 in0.0 mm
03:37 AM 31.8°F-0.1°C 14.4°F-9.8°C 48% 0.2 mph NW0.3 kmh NW 1.1 mph1.8 kmh 30.14 in1020.7 mb 0.00 in0.0 mm 0.00 in0.0 mm 0.00 in0.0 mm
03:36 AM 32.0°F0.0°C 14.5°F-9.7°C 48% 1.1 mph NW1.8 kmh NW 1.1 mph1.8 kmh 30.14 in1020.7 mb 0.00 in0.0 mm 0.00 in0.0 mm 0.00 in0.0 mm
03:35 AM 32.0°F0.0°C 14.5°F-9.7°C 48% 1.6 mph NW2.6 kmh NW 4.3 mph6.9 kmh 30.14 in1020.7 mb 0.00 in0.0 mm 0.00 in0.0 mm 0.00 in0.0 mm
03:34 AM 32.0°F0.0°C 14.5°F-9.7°C 48% 1.3 mph NW2.1 kmh NW 4.3 mph6.9 kmh 30.14 in1020.7 mb 0.00 in0.0 mm 0.00 in0.0 mm 0.00 in0.0 mm
03:33 AM 32.0°F0.0°C 14.5°F-9.7°C 48% 1.1 mph W1.8 kmh W 1.1 mph1.8 kmh 30.14 in1020.7 mb 0.00 in0.0 mm 0.00 in0.0 mm 0.00 in0.0 mm
03:32 AM 32.0°F0.0°C 14.5°F-9.7°C 48% 1.3 mph W2.1 kmh W 3.1 mph5.0 kmh 30.14 in1020.7 mb 0.00 in0.0 mm 0.00 in0.0 mm 0.00 in0.0 mm
03:31 AM 32.0°F0.0°C 14.5°F-9.7°C 48% 1.6 mph WNW2.6 kmh WNW 2.0 mph3.2 kmh 30.14 in1020.7 mb 0.00 in0.0 mm 0.00 in0.0 mm 0.00 in0.0 mm
03:30 AM 32.0°F0.0°C 14.5°F-9.7°C 48% 1.6 mph WNW2.6 kmh WNW 4.3 mph6.9 kmh 30.14 in1020.7 mb 0.00 in0.0 mm 0.00 in0.0 mm 0.00 in0.0 mm
03:29 AM 32.0°F0.0°C 14.5°F-9.7°C 48% 1.6 mph W2.6 kmh W 2.0 mph3.2 kmh 30.14 in1020.7 mb 0.00 in0.0 mm 0.00 in0.0 mm 0.00 in0.0 mm
03:28 AM 32.0°F0.0°C 14.5°F-9.7°C 48% 1.3 mph WNW2.1 kmh WNW 1.1 mph1.8 kmh 30.14 in1020.7 mb 0.00 in0.0 mm 0.00 in0.0 mm 0.00 in0.0 mm
03:27 AM 32.0°F0.0°C 14.5°F-9.7°C 48% 1.6 mph WNW2.6 kmh WNW 2.0 mph3.2 kmh 30.14 in1020.7 mb 0.00 in0.0 mm 0.00 in0.0 mm 0.00 in0.0 mm
03:26 AM 32.0°F0.0°C 14.5°F-9.7°C 48% 0.9 mph WNW1.4 kmh WNW 2.0 mph3.2 kmh 30.14 in1020.7 mb 0.00 in0.0 mm 0.00 in0.0 mm 0.00 in0.0 mm
03:25 AM 32.0°F0.0°C 14.0°F-10.0°C 47% 0.9 mph WNW1.4 kmh WNW 2.0 mph3.2 kmh 30.14 in1020.7 mb 0.00 in0.0 mm 0.00 in0.0 mm 0.00 in0.0 mm
03:24 AM 32.0°F0.0°C 14.0°F-10.0°C 47% 1.6 mph WNW2.6 kmh WNW 2.0 mph3.2 kmh 30.14 in1020.7 mb 0.00 in0.0 mm 0.00 in0.0 mm 0.00 in0.0 mm
03:23 AM 32.0°F0.0°C 14.0°F-10.0°C 47% 2.2 mph WNW3.5 kmh WNW 3.1 mph5.0 kmh 30.14 in1020.7 mb 0.00 in0.0 mm 0.00 in0.0 mm 0.00 in0.0 mm
03:22 AM 32.2°F0.1°C 14.7°F-9.6°C 48% 2.2 mph WNW3.5 kmh WNW 4.3 mph6.9 kmh 30.14 in1020.7 mb 0.00 in0.0 mm 0.00 in0.0 mm 0.00 in0.0 mm
03:21 AM 32.2°F0.1°C 14.7°F-9.6°C 48% 1.6 mph WNW2.6 kmh WNW 3.1 mph5.0 kmh 30.14 in1020.7 mb 0.00 in0.0 mm 0.00 in0.0 mm 0.00 in0.0 mm
03:20 AM 32.2°F0.1°C 14.7°F-9.6°C 48% 1.8 mph WNW2.9 kmh WNW 3.1 mph5.0 kmh 30.14 in1020.7 mb 0.00 in0.0 mm 0.00 in0.0 mm 0.00 in0.0 mm
03:19 AM 32.2°F0.1°C 14.2°F-9.9°C 47% 2.0 mph WNW3.2 kmh WNW 4.3 mph6.9 kmh 30.15 in1021.0 mb 0.00 in0.0 mm 0.00 in0.0 mm 0.00 in0.0 mm
03:18 AM 32.2°F0.1°C 14.2°F-9.9°C 47% 1.8 mph W2.9 kmh W 4.3 mph6.9 kmh 30.15 in1021.0 mb 0.00 in0.0 mm 0.00 in0.0 mm 0.00 in0.0 mm
03:17 AM 32.2°F0.1°C 14.7°F-9.6°C 48% 1.8 mph W2.9 kmh W 4.3 mph6.9 kmh 30.14 in1020.7 mb 0.00 in0.0 mm 0.00 in0.0 mm 0.00 in0.0 mm
03:16 AM 32.2°F0.1°C 14.2°F-9.9°C 47% 1.6 mph W2.6 kmh W 2.0 mph3.2 kmh 30.14 in1020.7 mb 0.00 in0.0 mm 0.00 in0.0 mm 0.00 in0.0 mm
03:15 AM 32.2°F0.1°C 14.7°F-9.6°C 48% 1.3 mph W2.1 kmh W 2.0 mph3.2 kmh 30.14 in1020.7 mb 0.00 in0.0 mm 0.00 in0.0 mm 0.00 in0.0 mm
03:14 AM 32.2°F0.1°C 14.2°F-9.9°C 47% 1.3 mph W2.1 kmh W 2.0 mph3.2 kmh 30.14 in1020.7 mb 0.00 in0.0 mm 0.00 in0.0 mm 0.00 in0.0 mm
03:13 AM 32.2°F0.1°C 14.7°F-9.6°C 48% 1.1 mph W1.8 kmh W 2.0 mph3.2 kmh 30.14 in1020.7 mb 0.00 in0.0 mm 0.00 in0.0 mm 0.00 in0.0 mm
03:12 AM 32.2°F0.1°C 14.2°F-9.9°C 47% 1.1 mph W1.8 kmh W 2.0 mph3.2 kmh 30.14 in1020.7 mb 0.00 in0.0 mm 0.00 in0.0 mm 0.00 in0.0 mm
03:11 AM 32.2°F0.1°C 14.2°F-9.9°C 47% 1.6 mph W2.6 kmh W 2.0 mph3.2 kmh 30.15 in1021.0 mb 0.00 in0.0 mm 0.00 in0.0 mm 0.00 in0.0 mm
03:10 AM 32.2°F0.1°C 14.2°F-9.9°C 47% 0.7 mph W1.1 kmh W 2.0 mph3.2 kmh 30.15 in1021.0 mb 0.00 in0.0 mm 0.00 in0.0 mm 0.00 in0.0 mm
03:09 AM 32.2°F0.1°C 14.7°F-9.6°C 48% 0.7 mph W1.1 kmh W 1.1 mph1.8 kmh 30.15 in1021.0 mb 0.00 in0.0 mm 0.00 in0.0 mm 0.00 in0.0 mm
03:08 AM 32.2°F0.1°C 14.2°F-9.9°C 47% 1.3 mph W2.1 kmh W 3.1 mph5.0 kmh 30.15 in1021.0 mb 0.00 in0.0 mm 0.00 in0.0 mm 0.00 in0.0 mm
03:07 AM 32.4°F0.2°C 14.4°F-9.8°C 47% 1.3 mph W2.1 kmh W 2.0 mph3.2 kmh 30.15 in1021.0 mb 0.00 in0.0 mm 0.00 in0.0 mm 0.00 in0.0 mm
03:06 AM 32.4°F0.2°C 14.4°F-9.8°C 47% 1.6 mph W2.6 kmh W 2.0 mph3.2 kmh 30.15 in1021.0 mb 0.00 in0.0 mm 0.00 in0.0 mm 0.00 in0.0 mm
03:05 AM 32.4°F0.2°C 14.4°F-9.8°C 47% 1.3 mph W2.1 kmh W 3.1 mph5.0 kmh 30.15 in1021.0 mb 0.00 in0.0 mm 0.00 in0.0 mm 0.00 in0.0 mm
03:04 AM 32.4°F0.2°C 14.4°F-9.8°C 47% 1.3 mph WSW2.1 kmh WSW 2.0 mph3.2 kmh 30.15 in1021.0 mb 0.00 in0.0 mm 0.00 in0.0 mm 0.00 in0.0 mm
03:03 AM 32.4°F0.2°C 14.4°F-9.8°C 47% 1.6 mph WSW2.6 kmh WSW 2.0 mph3.2 kmh 30.15 in1021.0 mb 0.00 in0.0 mm 0.00 in0.0 mm 0.00 in0.0 mm
03:02 AM 32.4°F0.2°C 14.4°F-9.8°C 47% 1.8 mph WSW2.9 kmh WSW 4.3 mph6.9 kmh 30.15 in1021.0 mb 0.00 in0.0 mm 0.00 in0.0 mm 0.00 in0.0 mm
03:01 AM 32.4°F0.2°C 14.4°F-9.8°C 47% 2.0 mph WSW3.2 kmh WSW 4.3 mph6.9 kmh 30.16 in1021.3 mb 0.00 in0.0 mm 0.00 in0.0 mm 0.00 in0.0 mm
03:00 AM 32.4°F0.2°C 14.4°F-9.8°C 47% 2.0 mph W3.2 kmh W 3.1 mph5.0 kmh 30.15 in1021.0 mb 0.00 in0.0 mm 0.00 in0.0 mm 0.00 in0.0 mm
02:59 AM 32.4°F0.2°C 14.4°F-9.8°C 47% 2.0 mph W3.2 kmh W 4.3 mph6.9 kmh 30.15 in1021.0 mb 0.00 in0.0 mm 0.00 in0.0 mm 0.00 in0.0 mm
02:58 AM 32.4°F0.2°C 14.4°F-9.8°C 47% 1.8 mph W2.9 kmh W 4.3 mph6.9 kmh 30.15 in1021.0 mb 0.00 in0.0 mm 0.00 in0.0 mm 0.00 in0.0 mm
02:57 AM 32.4°F0.2°C 14.4°F-9.8°C 47% 1.6 mph W2.6 kmh W 2.0 mph3.2 kmh 30.16 in1021.3 mb 0.00 in0.0 mm 0.00 in0.0 mm 0.00 in0.0 mm
02:56 AM 32.4°F0.2°C 14.4°F-9.8°C 47% 1.8 mph W2.9 kmh W 2.0 mph3.2 kmh 30.16 in1021.3 mb 0.00 in0.0 mm 0.00 in0.0 mm 0.00 in0.0 mm
02:55 AM 32.4°F0.2°C 14.4°F-9.8°C 47% 1.8 mph W2.9 kmh W 3.1 mph5.0 kmh 30.16 in1021.3 mb 0.00 in0.0 mm 0.00 in0.0 mm 0.00 in0.0 mm
02:54 AM 32.5°F0.3°C 14.5°F-9.7°C 47% 2.2 mph W3.5 kmh W 3.1 mph5.0 kmh 30.15 in1021.0 mb 0.00 in0.0 mm 0.00 in0.0 mm 0.00 in0.0 mm
02:53 AM 32.5°F0.3°C 14.5°F-9.7°C 47% 2.2 mph W3.5 kmh W 3.1 mph5.0 kmh 30.15 in1021.0 mb 0.00 in0.0 mm 0.00 in0.0 mm 0.00 in0.0 mm
02:52 AM 32.5°F0.3°C 14.5°F-9.7°C 47% 2.0 mph W3.2 kmh W 3.1 mph5.0 kmh 30.15 in1021.0 mb 0.00 in0.0 mm 0.00 in0.0 mm 0.00 in0.0 mm
02:51 AM 32.5°F0.3°C 14.5°F-9.7°C 47% 2.0 mph WSW3.2 kmh WSW 3.1 mph5.0 kmh 30.16 in1021.3 mb 0.00 in0.0 mm 0.00 in0.0 mm 0.00 in0.0 mm
02:50 AM 32.5°F0.3°C 14.0°F-10.0°C 46% 2.0 mph WSW3.2 kmh WSW 3.1 mph5.0 kmh 30.16 in1021.3 mb 0.00 in0.0 mm 0.00 in0.0 mm 0.00 in0.0 mm
02:49 AM 32.5°F0.3°C 14.0°F-10.0°C 46% 2.5 mph WSW4.0 kmh WSW 3.1 mph5.0 kmh 30.16 in1021.3 mb 0.00 in0.0 mm 0.00 in0.0 mm 0.00 in0.0 mm
02:48 AM 32.5°F0.3°C 14.0°F-10.0°C 46% 2.2 mph NW3.5 kmh NW 3.1 mph5.0 kmh 30.16 in1021.3 mb 0.00 in0.0 mm 0.00 in0.0 mm 0.00 in0.0 mm
02:47 AM 32.5°F0.3°C 14.0°F-10.0°C 46% 2.5 mph WNW4.0 kmh WNW 4.3 mph6.9 kmh 30.16 in1021.3 mb 0.00 in0.0 mm 0.00 in0.0 mm 0.00 in0.0 mm
02:46 AM 32.5°F0.3°C 14.0°F-10.0°C 46% 2.7 mph WNW4.3 kmh WNW 4.3 mph6.9 kmh 30.16 in1021.3 mb 0.00 in0.0 mm 0.00 in0.0 mm 0.00 in0.0 mm
02:45 AM 32.5°F0.3°C 14.0°F-10.0°C 46% 2.5 mph WSW4.0 kmh WSW 4.3 mph6.9 kmh 30.16 in1021.3 mb 0.00 in0.0 mm 0.00 in0.0 mm 0.00 in0.0 mm
02:44 AM 32.7°F0.4°C 14.2°F-9.9°C 46% 2.0 mph SW3.2 kmh SW 3.1 mph5.0 kmh 30.16 in1021.3 mb 0.00 in0.0 mm 0.00 in0.0 mm 0.00 in0.0 mm
02:43 AM 32.7°F0.4°C 14.2°F-9.9°C 46% 1.8 mph W2.9 kmh W 3.1 mph5.0 kmh 30.16 in1021.3 mb 0.00 in0.0 mm 0.00 in0.0 mm 0.00 in0.0 mm
02:42 AM 32.7°F0.4°C 14.2°F-9.9°C 46% 2.2 mph WSW3.5 kmh WSW 2.0 mph3.2 kmh 30.16 in1021.3 mb 0.00 in0.0 mm 0.00 in0.0 mm 0.00 in0.0 mm
02:41 AM 32.7°F0.4°C 14.2°F-9.9°C 46% 2.5 mph W4.0 kmh W 4.3 mph6.9 kmh 30.16 in1021.3 mb 0.00 in0.0 mm 0.00 in0.0 mm 0.00 in0.0 mm
02:40 AM 32.7°F0.4°C 14.2°F-9.9°C 46% 2.2 mph W3.5 kmh W 3.1 mph5.0 kmh 30.16 in1021.3 mb 0.00 in0.0 mm 0.00 in0.0 mm 0.00 in0.0 mm
02:39 AM 32.7°F0.4°C 14.2°F-9.9°C 46% 2.2 mph WSW3.5 kmh WSW 3.1 mph5.0 kmh 30.16 in1021.3 mb 0.00 in0.0 mm 0.00 in0.0 mm 0.00 in0.0 mm
02:38 AM 32.7°F0.4°C 14.2°F-9.9°C 46% 2.5 mph W4.0 kmh W 4.3 mph6.9 kmh 30.16 in1021.3 mb 0.00 in0.0 mm 0.00 in0.0 mm 0.00 in0.0 mm
02:37 AM 32.7°F0.4°C 14.2°F-9.9°C 46% 2.0 mph W3.2 kmh W 4.3 mph6.9 kmh 30.16 in1021.3 mb 0.00 in0.0 mm 0.00 in0.0 mm 0.00 in0.0 mm
02:36 AM 32.7°F0.4°C 14.2°F-9.9°C 46% 1.6 mph WSW2.6 kmh WSW 3.1 mph5.0 kmh 30.16 in1021.3 mb 0.00 in0.0 mm 0.00 in0.0 mm 0.00 in0.0 mm
02:35 AM 32.7°F0.4°C 14.2°F-9.9°C 46% 2.5 mph WSW4.0 kmh WSW 3.1 mph5.0 kmh 30.16 in1021.3 mb 0.00 in0.0 mm 0.00 in0.0 mm 0.00 in0.0 mm
02:34 AM 32.7°F0.4°C 14.2°F-9.9°C 46% 3.1 mph WSW5.0 kmh WSW 6.3 mph10.1 kmh 30.16 in1021.3 mb 0.00 in0.0 mm 0.00 in0.0 mm 0.00 in0.0 mm
02:33 AM 32.7°F0.4°C 14.2°F-9.9°C 46% 2.9 mph W4.7 kmh W 6.3 mph10.1 kmh 30.16 in1021.3 mb 0.00 in0.0 mm 0.00 in0.0 mm 0.00 in0.0 mm
02:32 AM 32.7°F0.4°C 14.2°F-9.9°C 46% 2.5 mph WSW4.0 kmh WSW 4.3 mph6.9 kmh 30.16 in1021.3 mb 0.00 in0.0 mm 0.00 in0.0 mm 0.00 in0.0 mm
02:31 AM 32.7°F0.4°C 14.2°F-9.9°C 46% 2.5 mph WNW4.0 kmh WNW 4.3 mph6.9 kmh 30.16 in1021.3 mb 0.00 in0.0 mm 0.00 in0.0 mm 0.00 in0.0 mm
02:30 AM 32.7°F0.4°C 14.2°F-9.9°C 46% 2.7 mph WNW4.3 kmh WNW 3.1 mph5.0 kmh 30.16 in1021.3 mb 0.00 in0.0 mm 0.00 in0.0 mm 0.00 in0.0 mm
02:29 AM 32.7°F0.4°C 14.2°F-9.9°C 46% 2.9 mph W4.7 kmh W 4.3 mph6.9 kmh 30.16 in1021.3 mb 0.00 in0.0 mm 0.00 in0.0 mm 0.00 in0.0 mm
02:28 AM 32.7°F0.4°C 14.2°F-9.9°C 46% 2.7 mph WSW4.3 kmh WSW 4.3 mph6.9 kmh 30.16 in1021.3 mb 0.00 in0.0 mm 0.00 in0.0 mm 0.00 in0.0 mm
02:27 AM 32.7°F0.4°C 14.2°F-9.9°C 46% 3.1 mph SW5.0 kmh SW 4.3 mph6.9 kmh 30.16 in1021.3 mb 0.00 in0.0 mm 0.00 in0.0 mm 0.00 in0.0 mm
02:26 AM 32.7°F0.4°C 14.2°F-9.9°C 46% 2.7 mph WSW4.3 kmh WSW 4.3 mph6.9 kmh 30.16 in1021.3 mb 0.00 in0.0 mm 0.00 in0.0 mm 0.00 in0.0 mm
02:25 AM 32.7°F0.4°C 14.2°F-9.9°C 46% 2.5 mph SW4.0 kmh SW 4.3 mph6.9 kmh 30.16 in1021.3 mb 0.00 in0.0 mm 0.00 in0.0 mm 0.00 in0.0 mm
02:24 AM 32.7°F0.4°C 14.2°F-9.9°C 46% 2.0 mph SW3.2 kmh SW 3.1 mph5.0 kmh 30.16 in1021.3 mb 0.00 in0.0 mm 0.00 in0.0 mm 0.00 in0.0 mm
02:23 AM 32.7°F0.4°C 14.2°F-9.9°C 46% 2.0 mph WSW3.2 kmh WSW 2.0 mph3.2 kmh 30.16 in1021.3 mb 0.00 in0.0 mm 0.00 in0.0 mm 0.00 in0.0 mm
02:22 AM 32.7°F0.4°C 14.2°F-9.9°C 46% 2.7 mph W4.3 kmh W 4.3 mph6.9 kmh 30.16 in1021.3 mb 0.00 in0.0 mm 0.00 in0.0 mm 0.00 in0.0 mm
02:21 AM 32.7°F0.4°C 14.2°F-9.9°C 46% 2.5 mph WSW4.0 kmh WSW 4.3 mph6.9 kmh 30.16 in1021.3 mb 0.00 in0.0 mm 0.00 in0.0 mm 0.00 in0.0 mm
02:20 AM 32.7°F0.4°C 14.2°F-9.9°C 46% 2.5 mph W4.0 kmh W 4.3 mph6.9 kmh 30.16 in1021.3 mb 0.00 in0.0 mm 0.00 in0.0 mm 0.00 in0.0 mm
02:19 AM 32.7°F0.4°C 14.2°F-9.9°C 46% 2.5 mph W4.0 kmh W 4.3 mph6.9 kmh 30.16 in1021.3 mb 0.00 in0.0 mm 0.00 in0.0 mm 0.00 in0.0 mm
02:18 AM 32.7°F0.4°C 14.2°F-9.9°C 46% 2.0 mph WSW3.2 kmh WSW 3.1 mph5.0 kmh 30.16 in1021.3 mb 0.00 in0.0 mm 0.00 in0.0 mm 0.00 in0.0 mm
02:17 AM 32.7°F0.4°C 14.2°F-9.9°C 46% 2.0 mph WSW3.2 kmh WSW 3.1 mph5.0 kmh 30.16 in1021.3 mb 0.00 in0.0 mm 0.00 in0.0 mm 0.00 in0.0 mm
02:16 AM 32.7°F0.4°C 14.2°F-9.9°C 46% 2.5 mph WSW4.0 kmh WSW 5.4 mph8.7 kmh 30.16 in1021.3 mb 0.00 in0.0 mm 0.00 in0.0 mm 0.00 in0.0 mm
02:15 AM 32.7°F0.4°C 14.2°F-9.9°C 46% 2.5 mph W4.0 kmh W 5.4 mph8.7 kmh 30.16 in1021.3 mb 0.00 in0.0 mm 0.00 in0.0 mm 0.00 in0.0 mm
02:14 AM 32.7°F0.4°C 14.2°F-9.9°C 46% 2.0 mph WSW3.2 kmh WSW 3.1 mph5.0 kmh 30.17 in1021.7 mb 0.00 in0.0 mm 0.00 in0.0 mm 0.00 in0.0 mm
02:13 AM 32.7°F0.4°C 14.2°F-9.9°C 46% 2.0 mph WSW3.2 kmh WSW 3.1 mph5.0 kmh 30.17 in1021.7 mb 0.00 in0.0 mm 0.00 in0.0 mm 0.00 in0.0 mm
02:12 AM 32.7°F0.4°C 14.2°F-9.9°C 46% 1.6 mph WSW2.6 kmh WSW 2.0 mph3.2 kmh 30.16 in1021.3 mb 0.00 in0.0 mm 0.00 in0.0 mm 0.00 in0.0 mm
02:11 AM 32.7°F0.4°C 14.2°F-9.9°C 46% 1.6 mph WSW2.6 kmh WSW 2.0 mph3.2 kmh 30.16 in1021.3 mb 0.00 in0.0 mm 0.00 in0.0 mm 0.00 in0.0 mm
02:10 AM 32.7°F0.4°C 14.2°F-9.9°C 46% 2.0 mph WSW3.2 kmh WSW 2.0 mph3.2 kmh 30.16 in1021.3 mb 0.00 in0.0 mm 0.00 in0.0 mm 0.00 in0.0 mm
02:09 AM 32.9°F0.5°C 14.4°F-9.8°C 46% 2.2 mph WSW3.5 kmh WSW 3.1 mph5.0 kmh 30.16 in1021.3 mb 0.00 in0.0 mm 0.00 in0.0 mm 0.00 in0.0 mm
02:08 AM 32.9°F0.5°C 14.4°F-9.8°C 46% 2.0 mph WNW3.2 kmh WNW 3.1 mph5.0 kmh 30.16 in1021.3 mb 0.00 in0.0 mm 0.00 in0.0 mm 0.00 in0.0 mm
02:07 AM 32.9°F0.5°C 14.4°F-9.8°C 46% 1.8 mph W2.9 kmh W 3.1 mph5.0 kmh 30.16 in1021.3 mb 0.00 in0.0 mm 0.00 in0.0 mm 0.00 in0.0 mm
02:06 AM 32.9°F0.5°C 14.4°F-9.8°C 46% 1.8 mph W2.9 kmh W 3.1 mph5.0 kmh 30.17 in1021.7 mb 0.00 in0.0 mm 0.00 in0.0 mm 0.00 in0.0 mm
02:05 AM 32.9°F0.5°C 14.4°F-9.8°C 46% 2.0 mph W3.2 kmh W 3.1 mph5.0 kmh 30.17 in1021.7 mb 0.00 in0.0 mm 0.00 in0.0 mm 0.00 in0.0 mm
02:04 AM 32.9°F0.5°C 14.4°F-9.8°C 46% 1.8 mph W2.9 kmh W 3.1 mph5.0 kmh 30.17 in1021.7 mb 0.00 in0.0 mm 0.00 in0.0 mm 0.00 in0.0 mm
02:03 AM 32.9°F0.5°C 14.4°F-9.8°C 46% 1.8 mph W2.9 kmh W 2.0 mph3.2 kmh 30.17 in1021.7 mb 0.00 in0.0 mm 0.00 in0.0 mm 0.00 in0.0 mm
02:02 AM 33.1°F0.6°C 14.5°F-9.7°C 46% 1.6 mph W2.6 kmh W 2.0 mph3.2 kmh 30.17 in1021.7 mb 0.00 in0.0 mm 0.00 in0.0 mm 0.00 in0.0 mm
02:01 AM 33.1°F0.6°C 14.5°F-9.7°C 46% 1.8 mph W2.9 kmh W 2.0 mph3.2 kmh 30.17 in1021.7 mb 0.00 in0.0 mm 0.00 in0.0 mm 0.00 in0.0 mm
02:00 AM 33.1°F0.6°C 14.5°F-9.7°C 46% 1.8 mph W2.9 kmh W 3.1 mph5.0 kmh 30.17 in1021.7 mb 0.00 in0.0 mm 0.00 in0.0 mm 0.00 in0.0 mm
01:59 AM 33.1°F0.6°C 14.5°F-9.7°C 46% 1.8 mph W2.9 kmh W 2.0 mph3.2 kmh 30.17 in1021.7 mb 0.00 in0.0 mm 0.00 in0.0 mm 0.00 in0.0 mm
01:58 AM 33.1°F0.6°C 14.5°F-9.7°C 46% 1.8 mph W2.9 kmh W 4.3 mph6.9 kmh 30.17 in1021.7 mb 0.00 in0.0 mm 0.00 in0.0 mm 0.00 in0.0 mm
01:57 AM 33.1°F0.6°C 14.5°F-9.7°C 46% 1.8 mph W2.9 kmh W 4.3 mph6.9 kmh 30.17 in1021.7 mb 0.00 in0.0 mm 0.00 in0.0 mm 0.00 in0.0 mm
01:56 AM 33.1°F0.6°C 14.5°F-9.7°C 46% 1.8 mph WSW2.9 kmh WSW 2.0 mph3.2 kmh 30.17 in1021.7 mb 0.00 in0.0 mm 0.00 in0.0 mm 0.00 in0.0 mm
01:55 AM 33.1°F0.6°C 14.0°F-10.0°C 45% 1.6 mph WSW2.6 kmh WSW 2.0 mph3.2 kmh 30.17 in1021.7 mb 0.00 in0.0 mm 0.00 in0.0 mm 0.00 in0.0 mm
01:54 AM 33.3°F0.7°C 14.2°F-9.9°C 45% 1.6 mph WSW2.6 kmh WSW 2.0 mph3.2 kmh 30.17 in1021.7 mb 0.00 in0.0 mm 0.00 in0.0 mm 0.00 in0.0 mm
01:53 AM 33.3°F0.7°C 14.2°F-9.9°C 45% 1.8 mph WSW2.9 kmh WSW 3.1 mph5.0 kmh 30.17 in1021.7 mb 0.00 in0.0 mm 0.00 in0.0 mm 0.00 in0.0 mm
01:52 AM 33.3°F0.7°C 14.2°F-9.9°C 45% 1.8 mph WSW2.9 kmh WSW 3.1 mph5.0 kmh 30.17 in1021.7 mb 0.00 in0.0 mm 0.00 in0.0 mm 0.00 in0.0 mm
01:51 AM 33.3°F0.7°C 14.2°F-9.9°C 45% 2.0 mph WSW3.2 kmh WSW 3.1 mph5.0 kmh 30.17 in1021.7 mb 0.00 in0.0 mm 0.00 in0.0 mm 0.00 in0.0 mm
01:50 AM 33.3°F0.7°C 14.2°F-9.9°C 45% 2.2 mph W3.5 kmh W 4.3 mph6.9 kmh 30.17 in1021.7 mb 0.00 in0.0 mm 0.00 in0.0 mm 0.00 in0.0 mm
01:49 AM 33.3°F0.7°C 14.7°F-9.6°C 46% 2.2 mph WSW3.5 kmh WSW 3.1 mph5.0 kmh 30.17 in1021.7 mb 0.00 in0.0 mm 0.00 in0.0 mm 0.00 in0.0 mm
01:48 AM 33.3°F0.7°C 14.7°F-9.6°C 46% 2.0 mph WSW3.2 kmh WSW 4.3 mph6.9 kmh 30.17 in1021.7 mb 0.00 in0.0 mm 0.00 in0.0 mm 0.00 in0.0 mm
01:47 AM 33.3°F0.7°C 14.2°F-9.9°C 45% 2.0 mph WSW3.2 kmh WSW 3.1 mph5.0 kmh 30.17 in1021.7 mb 0.00 in0.0 mm 0.00 in0.0 mm 0.00 in0.0 mm
01:46 AM 33.3°F0.7°C 14.7°F-9.6°C 46% 2.5 mph W4.0 kmh W 4.3 mph6.9 kmh 30.17 in1021.7 mb 0.00 in0.0 mm 0.00 in0.0 mm 0.00 in0.0 mm
01:45 AM 33.3°F0.7°C 14.2°F-9.9°C 45% 2.2 mph SW3.5 kmh SW 3.1 mph5.0 kmh 30.17 in1021.7 mb 0.00 in0.0 mm 0.00 in0.0 mm 0.00 in0.0 mm
01:44 AM 33.3°F0.7°C 14.2°F-9.9°C 45% 2.2 mph WSW3.5 kmh WSW 3.1 mph5.0 kmh 30.17 in1021.7 mb 0.00 in0.0 mm 0.00 in0.0 mm 0.00 in0.0 mm
01:43 AM 33.3°F0.7°C 14.2°F-9.9°C 45% 2.5 mph W4.0 kmh W 3.1 mph5.0 kmh 30.17 in1021.7 mb 0.00 in0.0 mm 0.00 in0.0 mm 0.00 in0.0 mm
01:42 AM 33.3°F0.7°C 14.2°F-9.9°C 45% 2.9 mph W4.7 kmh W 4.3 mph6.9 kmh 30.17 in1021.7 mb 0.00 in0.0 mm 0.00 in0.0 mm 0.00 in0.0 mm
01:41 AM 33.3°F0.7°C 14.2°F-9.9°C 45% 2.7 mph W4.3 kmh W 4.3 mph6.9 kmh 30.17 in1021.7 mb 0.00 in0.0 mm 0.00 in0.0 mm 0.00 in0.0 mm
01:40 AM 33.3°F0.7°C 14.7°F-9.6°C 46% 2.2 mph SW3.5 kmh SW 4.3 mph6.9 kmh 30.17 in1021.7 mb 0.00 in0.0 mm 0.00 in0.0 mm 0.00 in0.0 mm
01:39 AM 33.3°F0.7°C 14.7°F-9.6°C 46% 2.5 mph SW4.0 kmh SW 4.3 mph6.9 kmh 30.17 in1021.7 mb 0.00 in0.0 mm 0.00 in0.0 mm 0.00 in0.0 mm
01:38 AM 33.3°F0.7°C 14.7°F-9.6°C 46% 2.5 mph WSW4.0 kmh WSW 4.3 mph6.9 kmh 30.17 in1021.7 mb 0.00 in0.0 mm 0.00 in0.0 mm 0.00 in0.0 mm
01:37 AM 33.3°F0.7°C 14.7°F-9.6°C 46% 2.7 mph SW4.3 kmh SW 4.3 mph6.9 kmh 30.17 in1021.7 mb 0.00 in0.0 mm 0.00 in0.0 mm 0.00 in0.0 mm
01:36 AM 33.3°F0.7°C 14.7°F-9.6°C 46% 2.7 mph WSW4.3 kmh WSW 4.3 mph6.9 kmh 30.17 in1021.7 mb 0.00 in0.0 mm 0.00 in0.0 mm 0.00 in0.0 mm
01:35 AM 33.3°F0.7°C 14.7°F-9.6°C 46% 2.5 mph WSW4.0 kmh WSW 4.3 mph6.9 kmh 30.17 in1021.7 mb 0.00 in0.0 mm 0.00 in0.0 mm 0.00 in0.0 mm
01:34 AM 33.3°F0.7°C 14.7°F-9.6°C 46% 2.7 mph W4.3 kmh W 4.3 mph6.9 kmh 30.17 in1021.7 mb 0.00 in0.0 mm 0.00 in0.0 mm 0.00 in0.0 mm
01:33 AM 33.1°F0.6°C 14.5°F-9.7°C 46% 2.7 mph SW4.3 kmh SW 3.1 mph5.0 kmh 30.17 in1021.7 mb 0.00 in0.0 mm 0.00 in0.0 mm 0.00 in0.0 mm
01:32 AM 33.1°F0.6°C 14.5°F-9.7°C 46% 2.2 mph W3.5 kmh W 4.3 mph6.9 kmh 30.17 in1021.7 mb 0.00 in0.0 mm 0.00 in0.0 mm 0.00 in0.0 mm
01:31 AM 33.1°F0.6°C 14.5°F-9.7°C 46% 1.8 mph W2.9 kmh W 3.1 mph5.0 kmh 30.17 in1021.7 mb 0.00 in0.0 mm 0.00 in0.0 mm 0.00 in0.0 mm
01:30 AM 33.1°F0.6°C 14.5°F-9.7°C 46% 2.2 mph W3.5 kmh W 4.3 mph6.9 kmh 30.17 in1021.7 mb 0.00 in0.0 mm 0.00 in0.0 mm 0.00 in0.0 mm
01:29 AM 33.1°F0.6°C 14.5°F-9.7°C 46% 2.0 mph WSW3.2 kmh WSW 4.3 mph6.9 kmh 30.17 in1021.7 mb 0.00 in0.0 mm 0.00 in0.0 mm 0.00 in0.0 mm
01:28 AM 33.1°F0.6°C 14.5°F-9.7°C 46% 2.2 mph WSW3.5 kmh WSW 3.1 mph5.0 kmh 30.17 in1021.7 mb 0.00 in0.0 mm 0.00 in0.0 mm 0.00 in0.0 mm
01:27 AM 33.1°F0.6°C 14.5°F-9.7°C 46% 2.2 mph WSW3.5 kmh WSW 4.3 mph6.9 kmh 30.17 in1021.7 mb 0.00 in0.0 mm 0.00 in0.0 mm 0.00 in0.0 mm
01:26 AM 33.1°F0.6°C 14.5°F-9.7°C 46% 2.0 mph WSW3.2 kmh WSW 3.1 mph5.0 kmh 30.17 in1021.7 mb 0.00 in0.0 mm 0.00 in0.0 mm 0.00 in0.0 mm
01:25 AM 33.1°F0.6°C 14.5°F-9.7°C 46% 2.0 mph WSW3.2 kmh WSW 3.1 mph5.0 kmh 30.17 in1021.7 mb 0.00 in0.0 mm 0.00 in0.0 mm 0.00 in0.0 mm
01:24 AM 33.1°F0.6°C 14.5°F-9.7°C 46% 1.8 mph WSW2.9 kmh WSW 2.0 mph3.2 kmh 30.17 in1021.7 mb 0.00 in0.0 mm 0.00 in0.0 mm 0.00 in0.0 mm
01:23 AM 33.1°F0.6°C 14.5°F-9.7°C 46% 2.2 mph W3.5 kmh W 5.4 mph8.7 kmh 30.17 in1021.7 mb 0.00 in0.0 mm 0.00 in0.0 mm 0.00 in0.0 mm
01:22 AM 33.1°F0.6°C 14.5°F-9.7°C 46% 2.5 mph W4.0 kmh W 5.4 mph8.7 kmh 30.17 in1021.7 mb 0.00 in0.0 mm 0.00 in0.0 mm 0.00 in0.0 mm
01:21 AM 33.1°F0.6°C 14.5°F-9.7°C 46% 1.8 mph WSW2.9 kmh WSW 3.1 mph5.0 kmh 30.17 in1021.7 mb 0.00 in0.0 mm 0.00 in0.0 mm 0.00 in0.0 mm
01:20 AM 33.1°F0.6°C 14.5°F-9.7°C 46% 1.8 mph SW2.9 kmh SW 2.0 mph3.2 kmh 30.17 in1021.7 mb 0.00 in0.0 mm 0.00 in0.0 mm 0.00 in0.0 mm
01:19 AM 33.1°F0.6°C 14.5°F-9.7°C 46% 2.2 mph WSW3.5 kmh WSW 3.1 mph5.0 kmh 30.18 in1022.0 mb 0.00 in0.0 mm 0.00 in0.0 mm 0.00 in0.0 mm
01:18 AM 33.1°F0.6°C 14.5°F-9.7°C 46% 2.2 mph WSW3.5 kmh WSW 5.4 mph8.7 kmh 30.17 in1021.7 mb 0.00 in0.0 mm 0.00 in0.0 mm 0.00 in0.0 mm
01:17 AM 33.1°F0.6°C 14.5°F-9.7°C 46% 1.8 mph SW2.9 kmh SW 5.4 mph8.7 kmh 30.17 in1021.7 mb 0.00 in0.0 mm 0.00 in0.0 mm 0.00 in0.0 mm
01:16 AM 33.1°F0.6°C 14.5°F-9.7°C 46% 1.8 mph W2.9 kmh W 3.1 mph5.0 kmh 30.18 in1022.0 mb 0.00 in0.0 mm 0.00 in0.0 mm 0.00 in0.0 mm
01:15 AM 33.1°F0.6°C 14.5°F-9.7°C 46% 1.8 mph W2.9 kmh W 2.0 mph3.2 kmh 30.17 in1021.7 mb 0.00 in0.0 mm 0.00 in0.0 mm 0.00 in0.0 mm
01:14 AM 33.3°F0.7°C 14.7°F-9.6°C 46% 2.2 mph W3.5 kmh W 4.3 mph6.9 kmh 30.17 in1021.7 mb 0.00 in0.0 mm 0.00 in0.0 mm 0.00 in0.0 mm
01:13 AM 33.3°F0.7°C 14.7°F-9.6°C 46% 2.5 mph W4.0 kmh W 4.3 mph6.9 kmh 30.17 in1021.7 mb 0.00 in0.0 mm 0.00 in0.0 mm 0.00 in0.0 mm
01:12 AM 33.3°F0.7°C 14.7°F-9.6°C 46% 2.5 mph WNW4.0 kmh WNW 4.3 mph6.9 kmh 30.18 in1022.0 mb 0.00 in0.0 mm 0.00 in0.0 mm 0.00 in0.0 mm
01:11 AM 33.3°F0.7°C 14.7°F-9.6°C 46% 2.0 mph WSW3.2 kmh WSW 3.1 mph5.0 kmh 30.18 in1022.0 mb 0.00 in0.0 mm 0.00 in0.0 mm 0.00 in0.0 mm
01:10 AM 33.1°F0.6°C 14.5°F-9.7°C 46% 2.0 mph WSW3.2 kmh WSW 3.1 mph5.0 kmh 30.18 in1022.0 mb 0.00 in0.0 mm 0.00 in0.0 mm 0.00 in0.0 mm
01:09 AM 33.1°F0.6°C 14.5°F-9.7°C 46% 2.2 mph WSW3.5 kmh WSW 3.1 mph5.0 kmh 30.18 in1022.0 mb 0.00 in0.0 mm 0.00 in0.0 mm 0.00 in0.0 mm
01:08 AM 33.1°F0.6°C 15.1°F-9.4°C 47% 2.2 mph WSW3.5 kmh WSW 4.3 mph6.9 kmh 30.17 in1021.7 mb 0.00 in0.0 mm 0.00 in0.0 mm 0.00 in0.0 mm
01:07 AM 33.1°F0.6°C 14.5°F-9.7°C 46% 2.9 mph WSW4.7 kmh WSW 4.3 mph6.9 kmh 30.18 in1022.0 mb 0.00 in0.0 mm 0.00 in0.0 mm 0.00 in0.0 mm
01:06 AM 33.1°F0.6°C 14.5°F-9.7°C 46% 3.1 mph WSW5.0 kmh WSW 5.4 mph8.7 kmh 30.17 in1021.7 mb 0.00 in0.0 mm 0.00 in0.0 mm 0.00 in0.0 mm
01:05 AM 33.1°F0.6°C 15.1°F-9.4°C 47% 2.2 mph SW3.5 kmh SW 5.4 mph8.7 kmh 30.18 in1022.0 mb 0.00 in0.0 mm 0.00 in0.0 mm 0.00 in0.0 mm
01:04 AM 33.1°F0.6°C 14.5°F-9.7°C 46% 2.0 mph WSW3.2 kmh WSW 3.1 mph5.0 kmh 30.17 in1021.7 mb 0.00 in0.0 mm 0.00 in0.0 mm 0.00 in0.0 mm
01:03 AM 33.1°F0.6°C 14.5°F-9.7°C 46% 2.2 mph WSW3.5 kmh WSW 3.1 mph5.0 kmh 30.17 in1021.7 mb 0.00 in0.0 mm 0.00 in0.0 mm 0.00 in0.0 mm
01:02 AM 33.1°F0.6°C 15.1°F-9.4°C 47% 2.2 mph W3.5 kmh W 4.3 mph6.9 kmh 30.18 in1022.0 mb 0.00 in0.0 mm 0.00 in0.0 mm 0.00 in0.0 mm
01:01 AM 33.1°F0.6°C 15.1°F-9.4°C 47% 2.5 mph WSW4.0 kmh WSW 4.3 mph6.9 kmh 30.18 in1022.0 mb 0.00 in0.0 mm 0.00 in0.0 mm 0.00 in0.0 mm
01:00 AM 33.1°F0.6°C 14.5°F-9.7°C 46% 2.7 mph WSW4.3 kmh WSW 4.3 mph6.9 kmh 30.18 in1022.0 mb 0.00 in0.0 mm 0.00 in0.0 mm 0.00 in0.0 mm
12:59 AM 33.1°F0.6°C 15.1°F-9.4°C 47% 2.5 mph W4.0 kmh W 4.3 mph6.9 kmh 30.18 in1022.0 mb 0.00 in0.0 mm 0.00 in0.0 mm 0.00 in0.0 mm
12:58 AM 33.1°F0.6°C 15.1°F-9.4°C 47% 2.0 mph WSW3.2 kmh WSW 3.1 mph5.0 kmh 30.18 in1022.0 mb 0.00 in0.0 mm 0.00 in0.0 mm 0.00 in0.0 mm
12:57 AM 33.1°F0.6°C 15.1°F-9.4°C 47% 1.8 mph W2.9 kmh W 3.1 mph5.0 kmh 30.17 in1021.7 mb 0.00 in0.0 mm 0.00 in0.0 mm 0.00 in0.0 mm
12:56 AM 33.1°F0.6°C 15.1°F-9.4°C 47% 1.8 mph WSW2.9 kmh WSW 2.0 mph3.2 kmh 30.17 in1021.7 mb 0.00 in0.0 mm 0.00 in0.0 mm 0.00 in0.0 mm
12:55 AM 33.1°F0.6°C 15.1°F-9.4°C 47% 1.8 mph WSW2.9 kmh WSW 3.1 mph5.0 kmh 30.18 in1022.0 mb 0.00 in0.0 mm 0.00 in0.0 mm 0.00 in0.0 mm
12:54 AM 33.1°F0.6°C 15.1°F-9.4°C 47% 2.0 mph WSW3.2 kmh WSW 3.1 mph5.0 kmh 30.17 in1021.7 mb 0.00 in0.0 mm 0.00 in0.0 mm 0.00 in0.0 mm
12:53 AM 33.1°F0.6°C 15.1°F-9.4°C 47% 2.9 mph WSW4.7 kmh WSW 5.4 mph8.7 kmh 30.17 in1021.7 mb 0.00 in0.0 mm 0.00 in0.0 mm 0.00 in0.0 mm
12:52 AM 33.1°F0.6°C 15.1°F-9.4°C 47% 2.9 mph SW4.7 kmh SW 5.4 mph8.7 kmh 30.18 in1022.0 mb 0.00 in0.0 mm 0.00 in0.0 mm 0.00 in0.0 mm
12:51 AM 33.1°F0.6°C 15.1°F-9.4°C 47% 2.0 mph WSW3.2 kmh WSW 3.1 mph5.0 kmh 30.18 in1022.0 mb 0.00 in0.0 mm 0.00 in0.0 mm 0.00 in0.0 mm
12:50 AM 33.1°F0.6°C 15.1°F-9.4°C 47% 2.0 mph WSW3.2 kmh WSW 3.1 mph5.0 kmh 30.18 in1022.0 mb 0.00 in0.0 mm 0.00 in0.0 mm 0.00 in0.0 mm
12:49 AM 33.1°F0.6°C 15.1°F-9.4°C 47% 2.0 mph WSW3.2 kmh WSW 3.1 mph5.0 kmh 30.17 in1021.7 mb 0.00 in0.0 mm 0.00 in0.0 mm 0.00 in0.0 mm
12:48 AM 33.1°F0.6°C 15.1°F-9.4°C 47% 1.8 mph W2.9 kmh W 3.1 mph5.0 kmh 30.18 in1022.0 mb 0.00 in0.0 mm 0.00 in0.0 mm 0.00 in0.0 mm
12:47 AM 33.1°F0.6°C 15.1°F-9.4°C 47% 2.5 mph W4.0 kmh W 4.3 mph6.9 kmh 30.18 in1022.0 mb 0.00 in0.0 mm 0.00 in0.0 mm 0.00 in0.0 mm
12:46 AM 33.1°F0.6°C 15.1°F-9.4°C 47% 2.2 mph W3.5 kmh W 4.3 mph6.9 kmh 30.18 in1022.0 mb 0.00 in0.0 mm 0.00 in0.0 mm 0.00 in0.0 mm
12:45 AM 33.1°F0.6°C 15.1°F-9.4°C 47% 2.2 mph WSW3.5 kmh WSW 3.1 mph5.0 kmh 30.18 in1022.0 mb 0.00 in0.0 mm 0.00 in0.0 mm 0.00 in0.0 mm
12:44 AM 33.1°F0.6°C 15.1°F-9.4°C 47% 2.2 mph WSW3.5 kmh WSW 3.1 mph5.0 kmh 30.18 in1022.0 mb 0.00 in0.0 mm 0.00 in0.0 mm 0.00 in0.0 mm
12:43 AM 33.1°F0.6°C 15.1°F-9.4°C 47% 2.2 mph SW3.5 kmh SW 3.1 mph5.0 kmh 30.18 in1022.0 mb 0.00 in0.0 mm 0.00 in0.0 mm 0.00 in0.0 mm
12:42 AM 33.1°F0.6°C 15.1°F-9.4°C 47% 2.2 mph WSW3.5 kmh WSW 3.1 mph5.0 kmh 30.18 in1022.0 mb 0.00 in0.0 mm 0.00 in0.0 mm 0.00 in0.0 mm
12:41 AM 33.1°F0.6°C 15.1°F-9.4°C 47% 2.5 mph WSW4.0 kmh WSW 3.1 mph5.0 kmh 30.18 in1022.0 mb 0.00 in0.0 mm 0.00 in0.0 mm 0.00 in0.0 mm
12:40 AM 33.1°F0.6°C 15.1°F-9.4°C 47% 2.2 mph WSW3.5 kmh WSW 3.1 mph5.0 kmh 30.18 in1022.0 mb 0.00 in0.0 mm 0.00 in0.0 mm 0.00 in0.0 mm
12:39 AM 33.1°F0.6°C 15.1°F-9.4°C 47% 2.2 mph WSW3.5 kmh WSW 4.3 mph6.9 kmh 30.18 in1022.0 mb 0.00 in0.0 mm 0.00 in0.0 mm 0.00 in0.0 mm
12:38 AM 33.1°F0.6°C 15.1°F-9.4°C 47% 2.2 mph WSW3.5 kmh WSW 4.3 mph6.9 kmh 30.18 in1022.0 mb 0.00 in0.0 mm 0.00 in0.0 mm 0.00 in0.0 mm
12:37 AM 33.1°F0.6°C 15.1°F-9.4°C 47% 2.0 mph WSW3.2 kmh WSW 3.1 mph5.0 kmh 30.18 in1022.0 mb 0.00 in0.0 mm 0.00 in0.0 mm 0.00 in0.0 mm
12:36 AM 33.1°F0.6°C 15.1°F-9.4°C 47% 1.8 mph WSW2.9 kmh WSW 3.1 mph5.0 kmh 30.18 in1022.0 mb 0.00 in0.0 mm 0.00 in0.0 mm 0.00 in0.0 mm
12:35 AM 33.1°F0.6°C 15.1°F-9.4°C 47% 1.8 mph SW2.9 kmh SW 3.1 mph5.0 kmh 30.18 in1022.0 mb 0.00 in0.0 mm 0.00 in0.0 mm 0.00 in0.0 mm
12:34 AM 33.1°F0.6°C 15.1°F-9.4°C 47% 2.2 mph WSW3.5 kmh WSW 3.1 mph5.0 kmh 30.18 in1022.0 mb 0.00 in0.0 mm 0.00 in0.0 mm 0.00 in0.0 mm
12:33 AM 33.3°F0.7°C 15.3°F-9.3°C 47% 2.2 mph W3.5 kmh W 4.3 mph6.9 kmh 30.18 in1022.0 mb 0.00 in0.0 mm 0.00 in0.0 mm 0.00 in0.0 mm
12:32 AM 33.3°F0.7°C 15.3°F-9.3°C 47% 2.2 mph SW3.5 kmh SW 4.3 mph6.9 kmh 30.18 in1022.0 mb 0.00 in0.0 mm 0.00 in0.0 mm 0.00 in0.0 mm
12:31 AM 33.3°F0.7°C 15.3°F-9.3°C 47% 2.0 mph WSW3.2 kmh WSW 4.3 mph6.9 kmh 30.19 in1022.4 mb 0.00 in0.0 mm 0.00 in0.0 mm 0.00 in0.0 mm
12:30 AM 33.3°F0.7°C 15.3°F-9.3°C 47% 1.8 mph W2.9 kmh W 2.0 mph3.2 kmh 30.18 in1022.0 mb 0.00 in0.0 mm 0.00 in0.0 mm 0.00 in0.0 mm
12:29 AM 33.3°F0.7°C 15.3°F-9.3°C 47% 1.8 mph W2.9 kmh W 3.1 mph5.0 kmh 30.18 in1022.0 mb 0.00 in0.0 mm 0.00 in0.0 mm 0.00 in0.0 mm
12:28 AM 33.3°F0.7°C 15.3°F-9.3°C 47% 1.8 mph W2.9 kmh W 3.1 mph5.0 kmh 30.18 in1022.0 mb 0.00 in0.0 mm 0.00 in0.0 mm 0.00 in0.0 mm
12:27 AM 33.3°F0.7°C 14.7°F-9.6°C 46% 2.0 mph WSW3.2 kmh WSW 3.1 mph5.0 kmh 30.19 in1022.4 mb 0.00 in0.0 mm 0.00 in0.0 mm 0.00 in0.0 mm
12:26 AM 33.3°F0.7°C 15.3°F-9.3°C 47% 2.7 mph W4.3 kmh W 3.1 mph5.0 kmh 30.19 in1022.4 mb 0.00 in0.0 mm 0.00 in0.0 mm 0.00 in0.0 mm
12:25 AM 33.3°F0.7°C 15.3°F-9.3°C 47% 3.4 mph W5.5 kmh W 6.3 mph10.1 kmh 30.19 in1022.4 mb 0.00 in0.0 mm 0.00 in0.0 mm 0.00 in0.0 mm
12:24 AM 33.1°F0.6°C 15.1°F-9.4°C 47% 2.9 mph W4.7 kmh W 6.3 mph10.1 kmh 30.18 in1022.0 mb 0.00 in0.0 mm 0.00 in0.0 mm 0.00 in0.0 mm
12:23 AM 33.1°F0.6°C 15.1°F-9.4°C 47% 2.0 mph WSW3.2 kmh WSW 4.3 mph6.9 kmh 30.18 in1022.0 mb 0.00 in0.0 mm 0.00 in0.0 mm 0.00 in0.0 mm
12:22 AM 33.1°F0.6°C 15.1°F-9.4°C 47% 2.2 mph WNW3.5 kmh WNW 4.3 mph6.9 kmh 30.18 in1022.0 mb 0.00 in0.0 mm 0.00 in0.0 mm 0.00 in0.0 mm
12:21 AM 33.1°F0.6°C 15.1°F-9.4°C 47% 2.2 mph WNW3.5 kmh WNW 4.3 mph6.9 kmh 30.19 in1022.4 mb 0.00 in0.0 mm 0.00 in0.0 mm 0.00 in0.0 mm
12:20 AM 33.1°F0.6°C 15.1°F-9.4°C 47% 1.6 mph WNW2.6 kmh WNW 3.1 mph5.0 kmh 30.19 in1022.4 mb 0.00 in0.0 mm 0.00 in0.0 mm 0.00 in0.0 mm
12:19 AM 33.1°F0.6°C 15.1°F-9.4°C 47% 2.0 mph W3.2 kmh W 3.1 mph5.0 kmh 30.19 in1022.4 mb 0.00 in0.0 mm 0.00 in0.0 mm 0.00 in0.0 mm
12:18 AM 33.1°F0.6°C 15.1°F-9.4°C 47% 2.0 mph W3.2 kmh W 3.1 mph5.0 kmh 30.19 in1022.4 mb 0.00 in0.0 mm 0.00 in0.0 mm 0.00 in0.0 mm
12:17 AM 33.1°F0.6°C 15.1°F-9.4°C 47% 2.0 mph W3.2 kmh W 3.1 mph5.0 kmh 30.19 in1022.4 mb 0.00 in0.0 mm 0.00 in0.0 mm 0.00 in0.0 mm
12:16 AM 33.1°F0.6°C 15.1°F-9.4°C 47% 2.2 mph WSW3.5 kmh WSW 3.1 mph5.0 kmh 30.19 in1022.4 mb 0.00 in0.0 mm 0.00 in0.0 mm 0.00 in0.0 mm
12:15 AM 33.1°F0.6°C 15.1°F-9.4°C 47% 1.6 mph WSW2.6 kmh WSW 4.3 mph6.9 kmh 30.19 in1022.4 mb 0.00 in0.0 mm 0.00 in0.0 mm 0.00 in0.0 mm
12:14 AM 33.1°F0.6°C 15.4°F-9.2°C 48% 1.1 mph WSW1.8 kmh WSW 2.0 mph3.2 kmh 30.19 in1022.4 mb 0.00 in0.0 mm 0.00 in0.0 mm 0.00 in0.0 mm
12:13 AM 33.1°F0.6°C 15.1°F-9.4°C 47% 1.6 mph WSW2.6 kmh WSW 2.0 mph3.2 kmh 30.19 in1022.4 mb 0.00 in0.0 mm 0.00 in0.0 mm 0.00 in0.0 mm
12:12 AM 33.3°F0.7°C 15.6°F-9.1°C 48% 1.3 mph WSW2.1 kmh WSW 3.1 mph5.0 kmh 30.18 in1022.0 mb 0.00 in0.0 mm 0.00 in0.0 mm 0.00 in0.0 mm
12:11 AM 33.3°F0.7°C 15.6°F-9.1°C 48% 1.3 mph WSW2.1 kmh WSW 2.0 mph3.2 kmh 30.19 in1022.4 mb 0.00 in0.0 mm 0.00 in0.0 mm 0.00 in0.0 mm
12:10 AM 33.3°F0.7°C 15.3°F-9.3°C 47% 1.8 mph WSW2.9 kmh WSW 2.0 mph3.2 kmh 30.19 in1022.4 mb 0.00 in0.0 mm 0.00 in0.0 mm 0.00 in0.0 mm
12:09 AM 33.3°F0.7°C 15.3°F-9.3°C 47% 1.8 mph WSW2.9 kmh WSW 3.1 mph5.0 kmh 30.19 in1022.4 mb 0.00 in0.0 mm 0.00 in0.0 mm 0.00 in0.0 mm
12:08 AM 33.3°F0.7°C 15.3°F-9.3°C 47% 1.8 mph WSW2.9 kmh WSW 3.1 mph5.0 kmh 30.19 in1022.4 mb 0.00 in0.0 mm 0.00 in0.0 mm 0.00 in0.0 mm
12:07 AM 33.3°F0.7°C 15.3°F-9.3°C 47% 2.0 mph WSW3.2 kmh WSW 3.1 mph5.0 kmh 30.19 in1022.4 mb 0.00 in0.0 mm 0.00 in0.0 mm 0.00 in0.0 mm
12:06 AM 33.3°F0.7°C 15.6°F-9.1°C 48% 2.0 mph WSW3.2 kmh WSW 3.1 mph5.0 kmh 30.19 in1022.4 mb 0.00 in0.0 mm 0.00 in0.0 mm 0.00 in0.0 mm
12:05 AM 33.3°F0.7°C 15.6°F-9.1°C 48% 1.8 mph WSW2.9 kmh WSW 3.1 mph5.0 kmh 30.19 in1022.4 mb 0.00 in0.0 mm 0.00 in0.0 mm 0.00 in0.0 mm
12:04 AM 33.3°F0.7°C 15.3°F-9.3°C 47% 1.6 mph WSW2.6 kmh WSW 2.0 mph3.2 kmh 30.19 in1022.4 mb 0.00 in0.0 mm 0.00 in0.0 mm 0.00 in0.0 mm
12:03 AM 33.3°F0.7°C 15.3°F-9.3°C 47% 1.6 mph WSW2.6 kmh WSW 2.0 mph3.2 kmh 30.19 in1022.4 mb 0.00 in0.0 mm 0.00 in0.0 mm 0.00 in0.0 mm
12:02 AM 33.3°F0.7°C 15.3°F-9.3°C 47% 1.6 mph WSW2.6 kmh WSW 3.1 mph5.0 kmh 30.19 in1022.4 mb 0.00 in0.0 mm 0.00 in0.0 mm 0.00 in0.0 mm
12:01 AM 33.3°F0.7°C 15.3°F-9.3°C 47% 1.6 mph WSW2.6 kmh WSW 3.1 mph5.0 kmh 30.19 in1022.4 mb 0.00 in0.0 mm 0.00 in0.0 mm 0.00 in0.0 mm
12:00 AM 33.3°F0.7°C 15.3°F-9.3°C 47% 2.0 mph WSW3.2 kmh WSW 2.0 mph3.2 kmh 30.19 in1022.4 mb 0.00 in0.0 mm 0.00 in0.0 mm 0.00 in0.0 mm